Observation data for Throckmorton on 05/15/2018      Previous  Date  Next       Current Mesonet Observations  Soil Data  Daily Summary Page  Observations in Plain Language
KTH1 150500Z 16002KT 23/21 A299 RMK A01 T02290208  RH  088%=      5-min Rain = 0
KTH1 150501Z 16003KT 23/21 A2989 RMK A01 T02290208  RH  088%=      5-min Rain = 0
KTH1 150502Z 16004KT 23/21 A2989 RMK A01 T02280208  RH  088%=      5-min Rain = 0
KTH1 150503Z 16004KT 23/21 A2989 RMK A01 T02270207  RH  088%=      5-min Rain = 0
KTH1 150504Z 16005KT 23/21 A2989 RMK A01 T02270207  RH  088%=      5-min Rain = 0
KTH1 150505Z 15005KT 23/21 A2989 RMK A01 T02260207  RH  089%=      5-min Rain = 0
KTH1 150506Z 15005KT 23/21 A2989 RMK A01 T02250206  RH  089%=      5-min Rain = 0
KTH1 150507Z 15006KT 22/21 A2989 RMK A01 T02240206  RH  089%=      5-min Rain = 0
KTH1 150508Z 15005KT 22/21 A2989 RMK A01 T02230205  RH  089%=      5-min Rain = 0
KTH1 150509Z 16005KT 22/21 A2989 RMK A01 T02220205  RH  090%=      5-min Rain = 0
KTH1 150510Z 15005KT 22/20 A2988 RMK A01 T02210204  RH  090%=      5-min Rain = 0
KTH1 150511Z 15005KT 22/20 A2988 RMK A01 T02210204  RH  090%=      5-min Rain = 0
KTH1 150512Z 15006KT 22/20 A2988 RMK A01 T02200204  RH  090%=      5-min Rain = 0
KTH1 150513Z 14005KT 22/20 A2988 RMK A01 T02200204  RH  090%=      5-min Rain = 0
KTH1 150514Z 13005KT 22/20 A2988 RMK A01 T02200204  RH  091%=      5-min Rain = 0
KTH1 150515Z 13005KT 22/20 A2988 RMK A01 T02200204  RH  091%=      5-min Rain = 0
KTH1 150516Z 13006KT 22/20 A2988 RMK A01 T02210204  RH  090%=      5-min Rain = 0
KTH1 150517Z 12006KT 22/21 A2988 RMK A01 T02230205  RH  090%=      5-min Rain = 0
KTH1 150518Z 13006KT 23/21 A2988 RMK A01 T02250206  RH  089%=      5-min Rain = 0
KTH1 150519Z 13006KT 23/21 A2988 RMK A01 T02270206  RH  088%=      5-min Rain = 0
KTH1 150520Z 13005KT 23/21 A2988 RMK A01 T02280206  RH  088%=      5-min Rain = 0
KTH1 150521Z 13005KT 23/21 A2988 RMK A01 T02290207  RH  087%=      5-min Rain = 0
KTH1 150522Z 13005KT 23/21 A2988 RMK A01 T02290206  RH  087%=      5-min Rain = 0
KTH1 150523Z 12004KT 23/21 A2988 RMK A01 T02290206  RH  087%=      5-min Rain = 0
KTH1 150524Z 12004KT 23/21 A2988 RMK A01 T02290206  RH  087%=      5-min Rain = 0
KTH1 150525Z 11004KT 23/21 A2988 RMK A01 T02290206  RH  087%=      5-min Rain = 0
KTH1 150526Z 10005KT 23/21 A2988 RMK A01 T02290206  RH  087%=      5-min Rain = 0
KTH1 150527Z 11003KT 23/21 A2988 RMK A01 T02290206  RH  087%=      5-min Rain = 0
KTH1 150528Z 11003KT 23/21 A2989 RMK A01 T02290205  RH  086%=      5-min Rain = 0
KTH1 150529Z 10002KT 23/21 A2989 RMK A01 T02290205  RH  087%=      5-min Rain = 0
KTH1 150530Z 10002KT 23/21 A2989 RMK A01 T02290205  RH  086%=      5-min Rain = 0
KTH1 150531Z 08001KT 23/21 A2989 RMK A01 T02280205  RH  087%=      5-min Rain = 0
KTH1 150532Z 08001KT 23/21 A2989 RMK A01 T02280205  RH  087%=      5-min Rain = 0
KTH1 150533Z 09001KT 23/21 A2989 RMK A01 T02270205  RH  087%=      5-min Rain = 0
KTH1 150534Z 09002KT 23/21 A2989 RMK A01 T02270205  RH  088%=      5-min Rain = 0
KTH1 150535Z 10003KT 23/21 A2989 RMK A01 T02270206  RH  088%=      5-min Rain = 0
KTH1 150536Z 10003KT 23/21 A2989 RMK A01 T02270205  RH  088%=      5-min Rain = 0
KTH1 150537Z 10003KT 23/21 A2989 RMK A01 T02260205  RH  088%=      5-min Rain = 0
KTH1 150538Z 11004KT 23/21 A2989 RMK A01 T02260205  RH  088%=      5-min Rain = 0
KTH1 150539Z 11004KT 23/21 A2989 RMK A01 T02260205  RH  088%=      5-min Rain = 0
KTH1 150540Z 11004KT 23/21 A2988 RMK A01 T02260205  RH  088%=      5-min Rain = 0
KTH1 150541Z 11004KT 23/21 A2988 RMK A01 T02260205  RH  088%=      5-min Rain = 0
KTH1 150542Z 11003KT 23/21 A2988 RMK A01 T02250205  RH  088%=      5-min Rain = 0
KTH1 150543Z 11003KT 23/21 A2988 RMK A01 T02260205  RH  088%=      5-min Rain = 0
KTH1 150544Z 12003KT 23/21 A2989 RMK A01 T02260205  RH  088%=      5-min Rain = 0
KTH1 150545Z 12003KT 23/21 A2989 RMK A01 T02250205  RH  088%=      5-min Rain = 0
KTH1 150546Z 11003KT 23/21 A2989 RMK A01 T02250205  RH  088%=      5-min Rain = 0
KTH1 150547Z 11003KT 22/20 A2989 RMK A01 T02240204  RH  088%=      5-min Rain = 0
KTH1 150548Z 12002KT 22/20 A2989 RMK A01 T02240204  RH  089%=      5-min Rain = 0
KTH1 150549Z 11002KT 22/20 A2989 RMK A01 T02230204  RH  089%=      5-min Rain = 0
KTH1 150550Z 09001KT 22/20 A2989 RMK A01 T02230204  RH  089%=      5-min Rain = 0
KTH1 150551Z 06000KT 22/20 A2989 RMK A01 T02230204  RH  089%=      5-min Rain = 0
KTH1 150552Z 35000KT 22/20 A2989 RMK A01 T02220204  RH  089%=      5-min Rain = 0
KTH1 150553Z 02001KT 22/20 A2989 RMK A01 T02220204  RH  090%=      5-min Rain = 0
KTH1 150554Z 08001KT 22/20 A2989 RMK A01 T02220204  RH  090%=      5-min Rain = 0
KTH1 150555Z 08001KT 22/20 A2989 RMK A01 T02220204  RH  090%=      5-min Rain = 0
KTH1 150556Z 08001KT 22/21 A2989 RMK A01 T02210205  RH  090%=      5-min Rain = 0
KTH1 150557Z 10001KT 22/21 A2989 RMK A01 T02210205  RH  090%=      5-min Rain = 0
KTH1 150558Z 09001KT 22/21 A2989 RMK A01 T02210205  RH  091%=      5-min Rain = 0
KTH1 150559Z 10001KT 22/20 A2989 RMK A01 T02210204  RH  091%=      5-min Rain = 0
KTH1 150600Z 10002KT 22/20 A2989 RMK A01 T02210204  RH  091%=      5-min Rain = 0
KTH1 150601Z 11002KT 22/20 A2989 RMK A01 T02200204  RH  091%=      5-min Rain = 0
KTH1 150602Z 12002KT 22/20 A2989 RMK A01 T02200204  RH  091%=      5-min Rain = 0
KTH1 150603Z 11002KT 22/20 A2989 RMK A01 T02190203  RH  091%=      5-min Rain = 0
KTH1 150604Z 11003KT 22/20 A2989 RMK A01 T02190204  RH  091%=      5-min Rain = 0
KTH1 150605Z 11002KT 22/20 A2989 RMK A01 T02190204  RH  091%=      5-min Rain = 0
KTH1 150606Z 11003KT 22/20 A2989 RMK A01 T02190203  RH  091%=      5-min Rain = 0
KTH1 150607Z 12003KT 22/20 A2989 RMK A01 T02180203  RH  091%=      5-min Rain = 0
KTH1 150608Z 12002KT 22/20 A2989 RMK A01 T02180203  RH  091%=      5-min Rain = 0
KTH1 150609Z 12002KT 22/20 A2989 RMK A01 T02170203  RH  091%=      5-min Rain = 0
KTH1 150610Z 11002KT 22/20 A2989 RMK A01 T02170203  RH  092%=      5-min Rain = 0
KTH1 150611Z 10003KT 22/20 A2989 RMK A01 T02170203  RH  092%=      5-min Rain = 0
KTH1 150612Z 10003KT 22/20 A2989 RMK A01 T02160203  RH  092%=      5-min Rain = 0
KTH1 150613Z 10002KT 22/20 A2989 RMK A01 T02160202  RH  092%=      5-min Rain = 0
KTH1 150614Z 10002KT 22/20 A2989 RMK A01 T02160202  RH  092%=      5-min Rain = 0
KTH1 150615Z 12002KT 22/20 A2989 RMK A01 T02150201  RH  092%=      5-min Rain = 0
KTH1 150616Z 11002KT 22/20 A2989 RMK A01 T02150202  RH  092%=      5-min Rain = 0
KTH1 150617Z 11002KT 21/20 A2989 RMK A01 T02140202  RH  092%=      5-min Rain = 0
KTH1 150618Z 11003KT 21/20 A299 RMK A01 T02140201  RH  092%=      5-min Rain = 0
KTH1 150619Z 13003KT 21/20 A299 RMK A01 T02130201  RH  093%=      5-min Rain = 0
KTH1 150620Z 13003KT 21/20 A299 RMK A01 T02130201  RH  093%=      5-min Rain = 0
KTH1 150621Z 13003KT 21/20 A2989 RMK A01 T02130202  RH  093%=      5-min Rain = 0
KTH1 150622Z 13003KT 21/20 A2989 RMK A01 T02130202  RH  093%=      5-min Rain = 0
KTH1 150623Z 12003KT 21/20 A2989 RMK A01 T02130202  RH  093%=      5-min Rain = 0
KTH1 150624Z 13003KT 21/20 A2989 RMK A01 T02130202  RH  093%=      5-min Rain = 0
KTH1 150625Z 14003KT 21/20 A2989 RMK A01 T02130202  RH  093%=      5-min Rain = 0
KTH1 150626Z 15003KT 21/20 A2989 RMK A01 T02130201  RH  093%=      5-min Rain = 0
KTH1 150627Z 15003KT 21/20 A2989 RMK A01 T02130201  RH  093%=      5-min Rain = 0
KTH1 150628Z 15003KT 21/20 A2989 RMK A01 T02130201  RH  093%=      5-min Rain = 0
KTH1 150629Z 15003KT 21/20 A2989 RMK A01 T02130201  RH  093%=      5-min Rain = 0
KTH1 150630Z 16004KT 21/20 A2989 RMK A01 T02130201  RH  093%=      5-min Rain = 0
KTH1 150631Z 16003KT 21/20 A2989 RMK A01 T02120201  RH  093%=      5-min Rain = 0
KTH1 150632Z 16003KT 21/20 A2989 RMK A01 T02120201  RH  093%=      5-min Rain = 0
KTH1 150633Z 16004KT 21/20 A2989 RMK A01 T02120201  RH  093%=      5-min Rain = 0
KTH1 150634Z 16004KT 21/20 A2989 RMK A01 T02120201  RH  093%=      5-min Rain = 0
KTH1 150635Z 17004KT 21/20 A2989 RMK A01 T02120201  RH  093%=      5-min Rain = 0
KTH1 150636Z 18004KT 21/20 A2989 RMK A01 T02120201  RH  093%=      5-min Rain = 0
KTH1 150637Z 18004KT 21/20 A2989 RMK A01 T02110200  RH  093%=      5-min Rain = 0
KTH1 150638Z 18004KT 21/20 A2989 RMK A01 T02110200  RH  093%=      5-min Rain = 0
KTH1 150639Z 18004KT 21/20 A2989 RMK A01 T02100199  RH  094%=      5-min Rain = 0
KTH1 150640Z 18004KT 21/20 A2989 RMK A01 T02090199  RH  094%=      5-min Rain = 0
KTH1 150641Z 17004KT 21/20 A2989 RMK A01 T02090199  RH  094%=      5-min Rain = 0
KTH1 150642Z 18005KT 21/20 A2989 RMK A01 T02090199  RH  094%=      5-min Rain = 0
KTH1 150643Z 18005KT 21/20 A2988 RMK A01 T02090200  RH  094%=      5-min Rain = 0
KTH1 150644Z 18005KT 21/20 A2988 RMK A01 T02090199  RH  094%=      5-min Rain = 0
KTH1 150645Z 19005KT 21/20 A2988 RMK A01 T02100200  RH  094%=      5-min Rain = 0
KTH1 150646Z 19005KT 21/20 A2988 RMK A01 T02100200  RH  094%=      5-min Rain = 0
KTH1 150647Z 20004KT 21/20 A2988 RMK A01 T02100199  RH  093%=      5-min Rain = 0
KTH1 150648Z 20004KT 21/20 A2988 RMK A01 T02100199  RH  093%=      5-min Rain = 0
KTH1 150649Z 20004KT 21/20 A2988 RMK A01 T02100198  RH  093%=      5-min Rain = 0
KTH1 150650Z 21004KT 21/20 A2988 RMK A01 T02100198  RH  093%=      5-min Rain = 0
KTH1 150651Z 22003KT 21/20 A2988 RMK A01 T02110199  RH  093%=      5-min Rain = 0
KTH1 150652Z 23003KT 21/20 A2988 RMK A01 T02110200  RH  093%=      5-min Rain = 0
KTH1 150653Z 25003KT 21/20 A2988 RMK A01 T02110201  RH  094%=      5-min Rain = 0
KTH1 150654Z 24004KT 21/20 A2988 RMK A01 T02110201  RH  094%=      5-min Rain = 0
KTH1 150655Z 23003KT 21/20 A2988 RMK A01 T02110201  RH  094%=      5-min Rain = 0
KTH1 150656Z 21003KT 21/20 A2988 RMK A01 T02110201  RH  094%=      5-min Rain = 0
KTH1 150657Z 22003KT 21/20 A2988 RMK A01 T02100200  RH  094%=      5-min Rain = 0
KTH1 150658Z 24003KT 21/20 A2988 RMK A01 T02100200  RH  094%=      5-min Rain = 0
KTH1 150659Z 25004KT 21/20 A2988 RMK A01 T02100199  RH  094%=      5-min Rain = 0
KTH1 150700Z 25004KT 21/20 A2988 RMK A01 T02100200  RH  094%=      5-min Rain = 0
KTH1 150701Z 25004KT 21/20 A2988 RMK A01 T02090199  RH  094%=      5-min Rain = 0
KTH1 150702Z 25004KT 21/20 A2988 RMK A01 T02090199  RH  094%=      5-min Rain = 0
KTH1 150703Z 24004KT 21/20 A2988 RMK A01 T02080199  RH  094%=      5-min Rain = 0
KTH1 150704Z 24004KT 21/20 A2988 RMK A01 T02080199  RH  095%=      5-min Rain = 0
KTH1 150705Z 25004KT 21/20 A2988 RMK A01 T02080199  RH  095%=      5-min Rain = 0
KTH1 150706Z 25004KT 21/20 A2988 RMK A01 T02080199  RH  094%=      5-min Rain = 0
KTH1 150707Z 25004KT 21/20 A2988 RMK A01 T02080198  RH  094%=      5-min Rain = 0
KTH1 150708Z 25003KT 21/20 A2988 RMK A01 T02080198  RH  094%=      5-min Rain = 0
KTH1 150709Z 25003KT 21/20 A2988 RMK A01 T02080199  RH  094%=      5-min Rain = 0
KTH1 150710Z 24003KT 21/20 A2988 RMK A01 T02070198  RH  094%=      5-min Rain = 0
KTH1 150711Z 24003KT 21/20 A2988 RMK A01 T02070198  RH  094%=      5-min Rain = 0
KTH1 150712Z 25004KT 21/20 A2988 RMK A01 T02070197  RH  094%=      5-min Rain = 0
KTH1 150713Z 25004KT 21/20 A2988 RMK A01 T02060197  RH  094%=      5-min Rain = 0
KTH1 150714Z 24004KT 21/20 A2988 RMK A01 T02060197  RH  094%=      5-min Rain = 0
KTH1 150715Z 24003KT 21/20 A2987 RMK A01 T02060197  RH  094%=      5-min Rain = 0
KTH1 150716Z 24004KT 21/20 A2987 RMK A01 T02060197  RH  095%=      5-min Rain = 0
KTH1 150717Z 24003KT 21/20 A2987 RMK A01 T02060197  RH  095%=      5-min Rain = 0
KTH1 150718Z 23003KT 21/20 A2987 RMK A01 T02060197  RH  095%=      5-min Rain = 0
KTH1 150719Z 23004KT 21/20 A2987 RMK A01 T02060197  RH  094%=      5-min Rain = 0
KTH1 150720Z 23004KT 21/20 A2987 RMK A01 T02050196  RH  094%=      5-min Rain = 0
KTH1 150721Z 23004KT 21/20 A2987 RMK A01 T02050196  RH  094%=      5-min Rain = 0
KTH1 150722Z 23004KT 21/20 A2987 RMK A01 T02050196  RH  094%=      5-min Rain = 0
KTH1 150723Z 23004KT 20/20 A2987 RMK A01 T02040195  RH  094%=      5-min Rain = 0
KTH1 150724Z 24003KT 20/20 A2987 RMK A01 T02040195  RH  095%=      5-min Rain = 0
KTH1 150725Z 25003KT 20/20 A2987 RMK A01 T02040195  RH  095%=      5-min Rain = 0
KTH1 150726Z 24003KT 20/20 A2987 RMK A01 T02030195  RH  095%=      5-min Rain = 0
KTH1 150727Z 24003KT 20/20 A2987 RMK A01 T02030195  RH  095%=      5-min Rain = 0
KTH1 150728Z 24003KT 20/20 A2987 RMK A01 T02030195  RH  095%=      5-min Rain = 0
KTH1 150729Z 24003KT 20/20 A2987 RMK A01 T02040195  RH  095%=      5-min Rain = 0
KTH1 150730Z 23004KT 20/20 A2987 RMK A01 T02030195  RH  095%=      5-min Rain = 0
KTH1 150731Z 22004KT 20/19 A2987 RMK A01 T02020194  RH  095%=      5-min Rain = 0
KTH1 150732Z 22004KT 20/19 A2987 RMK A01 T02020193  RH  095%=      5-min Rain = 0
KTH1 150733Z 22003KT 20/19 A2987 RMK A01 T02010192  RH  095%=      5-min Rain = 0
KTH1 150734Z 23003KT 20/19 A2987 RMK A01 T02010192  RH  095%=      5-min Rain = 0
KTH1 150735Z 23003KT 20/19 A2988 RMK A01 T02000192  RH  095%=      5-min Rain = 0
KTH1 150736Z 24003KT 20/19 A2988 RMK A01 T02000193  RH  095%=      5-min Rain = 0
KTH1 150737Z 25003KT 20/19 A2988 RMK A01 T02010193  RH  095%=      5-min Rain = 0
KTH1 150738Z 27003KT 20/19 A2988 RMK A01 T02010193  RH  095%=      5-min Rain = 0
KTH1 150739Z 26002KT 20/20 A2988 RMK A01 T02020195  RH  096%=      5-min Rain = 0
KTH1 150740Z 27002KT 20/20 A2988 RMK A01 T02020196  RH  096%=      5-min Rain = 0
KTH1 150741Z 27002KT 20/20 A2988 RMK A01 T02030197  RH  096%=      5-min Rain = 0
KTH1 150742Z 27002KT 20/20 A2988 RMK A01 T02030196  RH  096%=      5-min Rain = 0
KTH1 150743Z 28001KT 20/20 A2988 RMK A01 T02030196  RH  096%=      5-min Rain = 0
KTH1 150744Z 30001KT 20/20 A2988 RMK A01 T02040197  RH  096%=      5-min Rain = 0
KTH1 150745Z 30001KT 20/20 A2988 RMK A01 T02040197  RH  096%=      5-min Rain = 0
KTH1 150746Z 31001KT 20/20 A2989 RMK A01 T02040197  RH  096%=      5-min Rain = 0
KTH1 150747Z 35002KT 20/20 A2989 RMK A01 T02040197  RH  096%=      5-min Rain = 0
KTH1 150748Z 01003KT 20/20 A2989 RMK A01 T02030195  RH  095%=      5-min Rain = 0
KTH1 150749Z 01003KT 20/19 A2989 RMK A01 T02010192  RH  094%=      5-min Rain = 0
KTH1 150750Z 02004KT 20/19 A2989 RMK A01 T01990191  RH  095%=      5-min Rain = 0
KTH1 150751Z 02004KT 20/19 A2989 RMK A01 T01990191  RH  095%=      5-min Rain = 0
KTH1 150752Z 01004KT 20/19 A2989 RMK A01 T01980191  RH  096%=      5-min Rain = 0
KTH1 150753Z 02004KT 20/19 A2989 RMK A01 T01980192  RH  096%=      5-min Rain = 0
KTH1 150754Z 01004KT 20/19 A2989 RMK A01 T01980193  RH  097%=      5-min Rain = 0
KTH1 150755Z 01004KT 20/19 A2989 RMK A01 T01980193  RH  097%=      5-min Rain = 0
KTH1 150756Z 02004KT 20/19 A299 RMK A01 T01980193  RH  097%=      5-min Rain = 0
KTH1 150757Z 02004KT 20/19 A299 RMK A01 T01980193  RH  097%=      5-min Rain = 0
KTH1 150758Z 03004KT 20/19 A299 RMK A01 T01980193  RH  097%=      5-min Rain = 0
KTH1 150759Z 03005KT 20/19 A299 RMK A01 T01990194  RH  097%=      5-min Rain = 0
KTH1 150800Z 02004KT 20/19 A299 RMK A01 T01990194  RH  097%=      5-min Rain = 0
KTH1 150801Z 02004KT 20/19 A299 RMK A01 T01990194  RH  097%=      5-min Rain = 0
KTH1 150802Z 02004KT 20/19 A299 RMK A01 T01990194  RH  097%=      5-min Rain = 0
KTH1 150803Z 02004KT 20/19 A2991 RMK A01 T01990194  RH  097%=      5-min Rain = 0
KTH1 150804Z 02003KT 20/19 A2991 RMK A01 T01990194  RH  097%=      5-min Rain = 0
KTH1 150805Z 02003KT 20/19 A2991 RMK A01 T01990193  RH  097%=      5-min Rain = 0
KTH1 150806Z 01003KT 20/19 A2991 RMK A01 T01990193  RH  096%=      5-min Rain = 0
KTH1 150807Z 00003KT 20/19 A2991 RMK A01 T01990193  RH  096%=      5-min Rain = 0
KTH1 150808Z 35003KT 20/19 A2991 RMK A01 T01980193  RH  096%=      5-min Rain = 0
KTH1 150809Z 35004KT 20/19 A2991 RMK A01 T01970191  RH  096%=      5-min Rain = 0
KTH1 150810Z 36003KT 20/19 A2991 RMK A01 T01970190  RH  096%=      5-min Rain = 0
KTH1 150811Z 00003KT 20/19 A2991 RMK A01 T01960189  RH  096%=      5-min Rain = 0
KTH1 150812Z 01002KT 20/19 A2991 RMK A01 T01950189  RH  096%=      5-min Rain = 0
KTH1 150813Z 00002KT 20/19 A2991 RMK A01 T01950189  RH  096%=      5-min Rain = 0
KTH1 150814Z 00003KT 20/19 A2991 RMK A01 T01950189  RH  096%=      5-min Rain = 0
KTH1 150815Z 00003KT 20/19 A2991 RMK A01 T01950189  RH  096%=      5-min Rain = 0
KTH1 150816Z 00003KT 19/19 A2991 RMK A01 T01940189  RH  096%=      5-min Rain = 0
KTH1 150817Z 02002KT 19/19 A2991 RMK A01 T01940188  RH  096%=      5-min Rain = 0
KTH1 150818Z 01002KT 19/19 A2991 RMK A01 T01930187  RH  096%=      5-min Rain = 0
KTH1 150819Z 02002KT 19/19 A2991 RMK A01 T01930188  RH  097%=      5-min Rain = 0
KTH1 150820Z 03002KT 19/19 A2991 RMK A01 T01930188  RH  097%=      5-min Rain = 0
KTH1 150821Z 03003KT 19/19 A2991 RMK A01 T01930188  RH  097%=      5-min Rain = 0
KTH1 150822Z 03002KT 19/19 A2991 RMK A01 T01930188  RH  097%=      5-min Rain = 0
KTH1 150823Z 03002KT 19/19 A2991 RMK A01 T01930189  RH  097%=      5-min Rain = 0
KTH1 150824Z 03002KT 19/19 A2991 RMK A01 T01940189  RH  097%=      5-min Rain = 0
KTH1 150825Z 05001KT 19/19 A2991 RMK A01 T01940189  RH  097%=      5-min Rain = 0
KTH1 150826Z 06001KT 19/19 A2991 RMK A01 T01930189  RH  097%=      5-min Rain = 0
KTH1 150827Z 09001KT 19/19 A2991 RMK A01 T01920188  RH  097%=      5-min Rain = 0
KTH1 150828Z 15001KT 19/19 A2991 RMK A01 T01920187  RH  097%=      5-min Rain = 0
KTH1 150829Z 16002KT 19/19 A2991 RMK A01 T01910187  RH  097%=      5-min Rain = 0
KTH1 150830Z 13001KT 19/19 A2991 RMK A01 T01910187  RH  097%=      5-min Rain = 0
KTH1 150831Z 11001KT 19/19 A2991 RMK A01 T01910186  RH  097%=      5-min Rain = 0
KTH1 150832Z 08001KT 19/19 A2991 RMK A01 T01900186  RH  097%=      5-min Rain = 0
KTH1 150833Z 07001KT 19/19 A2991 RMK A01 T01900186  RH  098%=      5-min Rain = 0
KTH1 150834Z 06001KT 19/19 A2991 RMK A01 T01910187  RH  098%=      5-min Rain = 0
KTH1 150835Z 06001KT 19/19 A2991 RMK A01 T01910188  RH  098%=      5-min Rain = 0
KTH1 150836Z 08002KT 19/19 A2991 RMK A01 T01920189  RH  098%=      5-min Rain = 0
KTH1 150837Z 11002KT 19/19 A2991 RMK A01 T01920189  RH  098%=      5-min Rain = 0
KTH1 150838Z 14002KT 19/19 A2991 RMK A01 T01920188  RH  098%=      5-min Rain = 0
KTH1 150839Z 15002KT 19/19 A2991 RMK A01 T01910187  RH  098%=      5-min Rain = 0
KTH1 150840Z 16003KT 19/19 A2991 RMK A01 T01900187  RH  098%=      5-min Rain = 0
KTH1 150841Z 16003KT 19/19 A2991 RMK A01 T01900186  RH  098%=      5-min Rain = 0
KTH1 150842Z 15003KT 19/19 A299 RMK A01 T01890186  RH  098%=      5-min Rain = 0
KTH1 150843Z 15003KT 19/19 A299 RMK A01 T01890185  RH  098%=      5-min Rain = 0
KTH1 150844Z 16003KT 19/19 A299 RMK A01 T01890186  RH  098%=      5-min Rain = 0
KTH1 150845Z 15003KT 19/19 A299 RMK A01 T01890185  RH  098%=      5-min Rain = 0
KTH1 150846Z 14003KT 19/19 A299 RMK A01 T01890185  RH  098%=      5-min Rain = 0
KTH1 150847Z 15004KT 19/18 A299 RMK A01 T01880184  RH  098%=      5-min Rain = 0
KTH1 150848Z 15005KT 19/18 A299 RMK A01 T01870183  RH  098%=      5-min Rain = 0
KTH1 150849Z 13004KT 19/18 A299 RMK A01 T01860182  RH  098%=      5-min Rain = 0
KTH1 150850Z 11003KT 19/18 A299 RMK A01 T01860182  RH  098%=      5-min Rain = 0
KTH1 150851Z 11003KT 19/18 A299 RMK A01 T01850181  RH  098%=      5-min Rain = 0
KTH1 150852Z 11003KT 19/18 A299 RMK A01 T01850181  RH  098%=      5-min Rain = 0
KTH1 150853Z 12003KT 18/18 A299 RMK A01 T01840180  RH  098%=      5-min Rain = 0
KTH1 150854Z 14003KT 18/18 A299 RMK A01 T01840180  RH  098%=      5-min Rain = 0
KTH1 150855Z 14003KT 18/18 A299 RMK A01 T01840180  RH  098%=      5-min Rain = 0
KTH1 150856Z 15002KT 18/18 A299 RMK A01 T01840180  RH  098%=      5-min Rain = 0
KTH1 150857Z 15002KT 18/18 A299 RMK A01 T01830180  RH  098%=      5-min Rain = 0
KTH1 150858Z 15002KT 18/18 A299 RMK A01 T01830180  RH  098%=      5-min Rain = 0
KTH1 150859Z 14002KT 18/18 A299 RMK A01 T01840181  RH  098%=      5-min Rain = 0
KTH1 150900Z 14002KT 18/18 A299 RMK A01 T01840181  RH  098%=      5-min Rain = 0
KTH1 150901Z 15002KT 18/18 A299 RMK A01 T01840181  RH  098%=      5-min Rain = 0
KTH1 150902Z 16003KT 18/18 A299 RMK A01 T01840182  RH  098%=      5-min Rain = 0
KTH1 150903Z 16004KT 19/18 A299 RMK A01 T01850182  RH  098%=      5-min Rain = 0
KTH1 150904Z 17004KT 19/18 A299 RMK A01 T01850182  RH  098%=      5-min Rain = 0
KTH1 150905Z 16004KT 19/18 A299 RMK A01 T01850182  RH  098%=      5-min Rain = 0
KTH1 150906Z 15003KT 19/18 A299 RMK A01 T01850183  RH  098%=      5-min Rain = 0
KTH1 150907Z 17004KT 19/18 A299 RMK A01 T01850183  RH  099%=      5-min Rain = 0
KTH1 150908Z 16003KT 19/18 A299 RMK A01 T01850183  RH  098%=      5-min Rain = 0
KTH1 150909Z 16005KT 19/18 A2989 RMK A01 T01860184  RH  099%=      5-min Rain = 0
KTH1 150910Z 15004KT 19/19 A2989 RMK A01 T01870185  RH  099%=      5-min Rain = 0
KTH1 150911Z 17004KT 19/19 A2989 RMK A01 T01870185  RH  099%=      5-min Rain = 0
KTH1 150912Z 14005KT 19/19 A2989 RMK A01 T01870185  RH  099%=      5-min Rain = 0
KTH1 150913Z 16004KT 19/19 A2989 RMK A01 T01870185  RH  099%=      5-min Rain = 0
KTH1 150914Z 16005KT 19/19 A2989 RMK A01 T01870185  RH  099%=      5-min Rain = 0
KTH1 150915Z 16005KT 19/18 A2989 RMK A01 T01860184  RH  099%=      5-min Rain = 0
KTH1 150916Z 16005KT 19/18 A2989 RMK A01 T01860184  RH  099%=      5-min Rain = 0
KTH1 150917Z 16005KT 19/18 A2989 RMK A01 T01850182  RH  098%=      5-min Rain = 0
KTH1 150918Z 17005KT 18/18 A2989 RMK A01 T01830181  RH  098%=      5-min Rain = 0
KTH1 150919Z 16005KT 18/18 A2989 RMK A01 T01820179  RH  098%=      5-min Rain = 0
KTH1 150920Z 17006KT 18/18 A2989 RMK A01 T01810178  RH  098%=      5-min Rain = 0
KTH1 150921Z 17006KT 18/18 A2989 RMK A01 T01810179  RH  098%=      5-min Rain = 0
KTH1 150922Z 17005KT 18/18 A2989 RMK A01 T01820179  RH  099%=      5-min Rain = 0
KTH1 150923Z 17005KT 18/18 A2989 RMK A01 T01830181  RH  099%=      5-min Rain = 0
KTH1 150924Z 17005KT 18/18 A2989 RMK A01 T01830180  RH  099%=      5-min Rain = 0
KTH1 150925Z 17005KT 18/18 A2988 RMK A01 T01830181  RH  099%=      5-min Rain = 0
KTH1 150926Z 17005KT 18/18 A2988 RMK A01 T01830181  RH  099%=      5-min Rain = 0
KTH1 150927Z 17005KT 18/18 A2988 RMK A01 T01830181  RH  099%=      5-min Rain = 0
KTH1 150928Z 17005KT 18/18 A2988 RMK A01 T01840182  RH  099%=      5-min Rain = 0
KTH1 150929Z 17005KT 18/18 A2988 RMK A01 T01840183  RH  099%=      5-min Rain = 0
KTH1 150930Z 17005KT 19/18 A2988 RMK A01 T01850183  RH  099%=      5-min Rain = 0
KTH1 150931Z 17005KT 19/18 A2988 RMK A01 T01850183  RH  099%=      5-min Rain = 0
KTH1 150932Z 17005KT 19/18 A2988 RMK A01 T01850184  RH  099%=      5-min Rain = 0
KTH1 150933Z 17005KT 19/18 A2988 RMK A01 T01860184  RH  099%=      5-min Rain = 0
KTH1 150934Z 17004KT 19/19 A2988 RMK A01 T01860185  RH  099%=      5-min Rain = 0
KTH1 150935Z 17004KT 19/19 A2988 RMK A01 T01870185  RH  099%=      5-min Rain = 0
KTH1 150936Z 17004KT 19/19 A2988 RMK A01 T01870186  RH  099%=      5-min Rain = 0
KTH1 150937Z 17004KT 19/19 A2988 RMK A01 T01870186  RH  099%=      5-min Rain = 0
KTH1 150938Z 17005KT 19/19 A2988 RMK A01 T01870185  RH  099%=      5-min Rain = 0
KTH1 150939Z 17005KT 19/19 A2988 RMK A01 T01870186  RH  099%=      5-min Rain = 0
KTH1 150940Z 17005KT 19/19 A2988 RMK A01 T01880186  RH  099%=      5-min Rain = 0
KTH1 150941Z 17005KT 19/19 A2988 RMK A01 T01890187  RH  099%=      5-min Rain = 0
KTH1 150942Z 17005KT 19/19 A2988 RMK A01 T01890187  RH  099%=      5-min Rain = 0
KTH1 150943Z 17005KT 19/19 A2988 RMK A01 T01890187  RH  099%=      5-min Rain = 0
KTH1 150944Z 17006KT 19/19 A2988 RMK A01 T01890187  RH  099%=      5-min Rain = 0
KTH1 150945Z 18006KT 19/19 A2988 RMK A01 T01890187  RH  099%=      5-min Rain = 0
KTH1 150946Z 18005KT 19/19 A2988 RMK A01 T01890187  RH  099%=      5-min Rain = 0
KTH1 150947Z 18005KT 19/19 A2988 RMK A01 T01890187  RH  099%=      5-min Rain = 0
KTH1 150948Z 19005KT 19/19 A2988 RMK A01 T01890187  RH  099%=      5-min Rain = 0
KTH1 150949Z 19005KT 19/19 A2988 RMK A01 T01890187  RH  099%=      5-min Rain = 0
KTH1 150950Z 20006KT 19/19 A2988 RMK A01 T01890187  RH  099%=      5-min Rain = 0
KTH1 150951Z 19005KT 19/19 A2988 RMK A01 T01890187  RH  099%=      5-min Rain = 0
KTH1 150952Z 20005KT 19/19 A2988 RMK A01 T01880186  RH  098%=      5-min Rain = 0
KTH1 150953Z 19005KT 19/19 A2988 RMK A01 T01880185  RH  098%=      5-min Rain = 0
KTH1 150954Z 20005KT 19/18 A2988 RMK A01 T01880184  RH  098%=      5-min Rain = 0
KTH1 150955Z 19005KT 19/18 A2988 RMK A01 T01880182  RH  097%=      5-min Rain = 0
KTH1 150956Z 19005KT 19/18 A2988 RMK A01 T01880181  RH  095%=      5-min Rain = 0
KTH1 150957Z 18005KT 19/18 A2988 RMK A01 T01900180  RH  094%=      5-min Rain = 0
KTH1 150958Z 18005KT 19/18 A2988 RMK A01 T01900179  RH  093%=      5-min Rain = 0
KTH1 150959Z 18004KT 19/18 A2988 RMK A01 T01910179  RH  093%=      5-min Rain = 0
KTH1 151000Z 18004KT 19/18 A2988 RMK A01 T01900178  RH  092%=      5-min Rain = 0
KTH1 151001Z 18004KT 19/18 A2989 RMK A01 T01900178  RH  092%=      5-min Rain = 0
KTH1 151002Z 19005KT 19/18 A2989 RMK A01 T01900177  RH  092%=      5-min Rain = 0
KTH1 151003Z 19004KT 19/18 A2989 RMK A01 T01910177  RH  092%=      5-min Rain = 0
KTH1 151004Z 18004KT 19/18 A2989 RMK A01 T01900177  RH  092%=      5-min Rain = 0
KTH1 151005Z 18004KT 19/18 A2989 RMK A01 T01900177  RH  092%=      5-min Rain = 0
KTH1 151006Z 18004KT 19/18 A2989 RMK A01 T01900177  RH  092%=      5-min Rain = 0
KTH1 151007Z 17003KT 19/18 A2989 RMK A01 T01900177  RH  092%=      5-min Rain = 0
KTH1 151008Z 16003KT 19/18 A2989 RMK A01 T01900177  RH  092%=      5-min Rain = 0
KTH1 151009Z 15002KT 19/18 A2989 RMK A01 T01890178  RH  093%=      5-min Rain = 0
KTH1 151010Z 17002KT 19/18 A2989 RMK A01 T01890177  RH  093%=      5-min Rain = 0
KTH1 151011Z 18002KT 19/18 A2989 RMK A01 T01890177  RH  093%=      5-min Rain = 0
KTH1 151012Z 19002KT 19/18 A2989 RMK A01 T01880177  RH  093%=      5-min Rain = 0
KTH1 151013Z 19001KT 19/18 A2989 RMK A01 T01880177  RH  093%=      5-min Rain = 0
KTH1 151014Z 21001KT 19/18 A2989 RMK A01 T01880178  RH  093%=      5-min Rain = 0
KTH1 151015Z 24001KT 19/18 A2989 RMK A01 T01880177  RH  093%=      5-min Rain = 0
KTH1 151016Z 26001KT 19/18 A2989 RMK A01 T01880177  RH  093%=      5-min Rain = 0
KTH1 151017Z 26001KT 19/18 A2989 RMK A01 T01880177  RH  093%=      5-min Rain = 0
KTH1 151018Z 27002KT 19/18 A2989 RMK A01 T01880176  RH  093%=      5-min Rain = 0
KTH1 151019Z 26002KT 19/18 A2989 RMK A01 T01870176  RH  093%=      5-min Rain = 0
KTH1 151020Z 25002KT 19/18 A2989 RMK A01 T01870176  RH  093%=      5-min Rain = 0
KTH1 151021Z 22002KT 19/18 A2989 RMK A01 T01870176  RH  093%=      5-min Rain = 0
KTH1 151022Z 22002KT 19/18 A2989 RMK A01 T01880176  RH  093%=      5-min Rain = 0
KTH1 151023Z 23002KT 19/18 A2989 RMK A01 T01880176  RH  092%=      5-min Rain = 0
KTH1 151024Z 22002KT 19/18 A2989 RMK A01 T01890175  RH  092%=      5-min Rain = 0
KTH1 151025Z 23002KT 19/18 A2989 RMK A01 T01890175  RH  091%=      5-min Rain = 0
KTH1 151026Z 22002KT 19/18 A2989 RMK A01 T01900175  RH  091%=      5-min Rain = 0
KTH1 151027Z 22003KT 19/18 A2989 RMK A01 T01900175  RH  091%=      5-min Rain = 0
KTH1 151028Z 22002KT 19/18 A2989 RMK A01 T01900175  RH  091%=      5-min Rain = 0
KTH1 151029Z 22002KT 19/18 A2989 RMK A01 T01900176  RH  091%=      5-min Rain = 0
KTH1 151030Z 21002KT 19/18 A2989 RMK A01 T01900176  RH  091%=      5-min Rain = 0
KTH1 151031Z 21002KT 19/18 A2989 RMK A01 T01900176  RH  091%=      5-min Rain = 0
KTH1 151032Z 19002KT 19/18 A2989 RMK A01 T01900176  RH  091%=      5-min Rain = 0
KTH1 151033Z 17002KT 19/18 A2989 RMK A01 T01900176  RH  091%=      5-min Rain = 0
KTH1 151034Z 16003KT 19/18 A2989 RMK A01 T01900175  RH  091%=      5-min Rain = 0
KTH1 151035Z 17004KT 19/17 A2989 RMK A01 T01890174  RH  091%=      5-min Rain = 0
KTH1 151036Z 17004KT 19/17 A2989 RMK A01 T01880173  RH  091%=      5-min Rain = 0
KTH1 151037Z 17004KT 19/17 A2989 RMK A01 T01870173  RH  091%=      5-min Rain = 0
KTH1 151038Z 17004KT 19/17 A2989 RMK A01 T01860172  RH  091%=      5-min Rain = 0
KTH1 151039Z 16004KT 19/17 A2989 RMK A01 T01860172  RH  092%=      5-min Rain = 0
KTH1 151040Z 16004KT 19/17 A2989 RMK A01 T01850172  RH  092%=      5-min Rain = 0
KTH1 151041Z 16004KT 18/17 A2989 RMK A01 T01840172  RH  092%=      5-min Rain = 0
KTH1 151042Z 16004KT 18/17 A2989 RMK A01 T01840172  RH  093%=      5-min Rain = 0
KTH1 151043Z 16004KT 18/17 A2989 RMK A01 T01840173  RH  093%=      5-min Rain = 0
KTH1 151044Z 16004KT 18/17 A2989 RMK A01 T01830173  RH  094%=      5-min Rain = 0
KTH1 151045Z 16004KT 18/17 A2989 RMK A01 T01830174  RH  094%=      5-min Rain = 0
KTH1 151046Z 16004KT 18/17 A2989 RMK A01 T01840174  RH  094%=      5-min Rain = 0
KTH1 151047Z 15004KT 18/18 A2989 RMK A01 T01830175  RH  095%=      5-min Rain = 0
KTH1 151048Z 15004KT 18/18 A2989 RMK A01 T01840176  RH  095%=      5-min Rain = 0
KTH1 151049Z 15003KT 18/18 A2989 RMK A01 T01840176  RH  095%=      5-min Rain = 0
KTH1 151050Z 15003KT 18/18 A2989 RMK A01 T01840176  RH  095%=      5-min Rain = 0
KTH1 151051Z 14002KT 18/18 A2989 RMK A01 T01840177  RH  095%=      5-min Rain = 0
KTH1 151052Z 14001KT 18/18 A2989 RMK A01 T01840176  RH  095%=      5-min Rain = 0
KTH1 151053Z 12001KT 18/17 A2989 RMK A01 T01830174  RH  095%=      5-min Rain = 0
KTH1 151054Z 06001KT 18/17 A2989 RMK A01 T01810173  RH  095%=      5-min Rain = 0
KTH1 151055Z 04001KT 18/17 A2989 RMK A01 T01810173  RH  095%=      5-min Rain = 0
KTH1 151056Z 05002KT 18/17 A2989 RMK A01 T01810173  RH  096%=      5-min Rain = 0
KTH1 151057Z 08002KT 18/17 A299 RMK A01 T01810174  RH  096%=      5-min Rain = 0
KTH1 151058Z 09003KT 18/17 A299 RMK A01 T01800174  RH  096%=      5-min Rain = 0
KTH1 151059Z 08003KT 18/17 A299 RMK A01 T01800173  RH  096%=      5-min Rain = 0
KTH1 151100Z 08003KT 18/17 A299 RMK A01 T01800174  RH  096%=      5-min Rain = 0
KTH1 151101Z 07003KT 18/17 A299 RMK A01 T01800174  RH  096%=      5-min Rain = 0
KTH1 151102Z 07002KT 18/17 A299 RMK A01 T01800174  RH  096%=      5-min Rain = 0
KTH1 151103Z 10002KT 18/18 A299 RMK A01 T01810176  RH  097%=      5-min Rain = 0
KTH1 151104Z 10002KT 18/18 A299 RMK A01 T01820177  RH  097%=      5-min Rain = 0
KTH1 151105Z 09001KT 18/18 A299 RMK A01 T01820177  RH  097%=      5-min Rain = 0
KTH1 151106Z 09002KT 18/18 A299 RMK A01 T01820177  RH  097%=      5-min Rain = 0
KTH1 151107Z 09002KT 18/18 A299 RMK A01 T01820177  RH  097%=      5-min Rain = 0
KTH1 151108Z 11002KT 18/18 A299 RMK A01 T01820177  RH  097%=      5-min Rain = 0
KTH1 151109Z 11001KT 18/18 A299 RMK A01 T01810176  RH  097%=      5-min Rain = 0
KTH1 151110Z 11002KT 18/18 A299 RMK A01 T01810176  RH  097%=      5-min Rain = 0
KTH1 151111Z 10001KT 18/18 A299 RMK A01 T01810176  RH  097%=      5-min Rain = 0
KTH1 151112Z 11001KT 18/18 A2991 RMK A01 T01800175  RH  097%=      5-min Rain = 0
KTH1 151113Z 13001KT 18/18 A2991 RMK A01 T01800175  RH  097%=      5-min Rain = 0
KTH1 151114Z 12001KT 18/18 A2991 RMK A01 T01800175  RH  097%=      5-min Rain = 0
KTH1 151115Z 12002KT 18/18 A2991 RMK A01 T01800175  RH  097%=      5-min Rain = 0
KTH1 151116Z 12002KT 18/17 A2991 RMK A01 T01800174  RH  097%=      5-min Rain = 0
KTH1 151117Z 11002KT 18/17 A2991 RMK A01 T01790174  RH  097%=      5-min Rain = 0
KTH1 151118Z 12002KT 18/17 A2991 RMK A01 T01790174  RH  097%=      5-min Rain = 0
KTH1 151119Z 11002KT 18/17 A2991 RMK A01 T01780173  RH  097%=      5-min Rain = 0
KTH1 151120Z 11002KT 18/17 A2991 RMK A01 T01780173  RH  097%=      5-min Rain = 0
KTH1 151121Z 11003KT 18/17 A2991 RMK A01 T01770173  RH  097%=      5-min Rain = 0
KTH1 151122Z 11003KT 18/17 A2991 RMK A01 T01770173  RH  097%=      5-min Rain = 0
KTH1 151123Z 11003KT 18/17 A2991 RMK A01 T01780173  RH  097%=      5-min Rain = 0
KTH1 151124Z 11003KT 18/17 A2991 RMK A01 T01780174  RH  098%=      5-min Rain = 0
KTH1 151125Z 12003KT 18/18 A2991 RMK A01 T01790175  RH  098%=      5-min Rain = 0
KTH1 151126Z 12003KT 18/18 A2991 RMK A01 T01780175  RH  098%=      5-min Rain = 0
KTH1 151127Z 12003KT 18/18 A2991 RMK A01 T01780175  RH  098%=      5-min Rain = 0
KTH1 151128Z 12003KT 18/17 A2992 RMK A01 T01780174  RH  098%=      5-min Rain = 0
KTH1 151129Z 11003KT 18/18 A2992 RMK A01 T01780175  RH  098%=      5-min Rain = 0
KTH1 151130Z 11003KT 18/18 A2992 RMK A01 T01780175  RH  098%=      5-min Rain = 0
KTH1 151131Z 10003KT 18/18 A2992 RMK A01 T01780175  RH  098%=      5-min Rain = 0
KTH1 151132Z 09003KT 18/17 A2992 RMK A01 T01780174  RH  098%=      5-min Rain = 0
KTH1 151133Z 09003KT 18/17 A2992 RMK A01 T01770173  RH  098%=      5-min Rain = 0
KTH1 151134Z 10002KT 18/17 A2992 RMK A01 T01770173  RH  098%=      5-min Rain = 0
KTH1 151135Z 08003KT 18/17 A2993 RMK A01 T01760172  RH  098%=      5-min Rain = 0
KTH1 151136Z 07003KT 18/17 A2993 RMK A01 T01760172  RH  098%=      5-min Rain = 0
KTH1 151137Z 07002KT 18/17 A2993 RMK A01 T01750172  RH  098%=      5-min Rain = 0
KTH1 151138Z 05003KT 18/17 A2993 RMK A01 T01750172  RH  098%=      5-min Rain = 0
KTH1 151139Z 05002KT 18/17 A2993 RMK A01 T01750172  RH  098%=      5-min Rain = 0
KTH1 151140Z 05002KT 18/17 A2993 RMK A01 T01750172  RH  098%=      5-min Rain = 0
KTH1 151141Z 06002KT 18/17 A2993 RMK A01 T01760173  RH  098%=      5-min Rain = 0
KTH1 151142Z 07002KT 18/17 A2993 RMK A01 T01770174  RH  098%=      5-min Rain = 0
KTH1 151143Z 05002KT 18/18 A2993 RMK A01 T01770175  RH  098%=      5-min Rain = 0
KTH1 151144Z 04003KT 18/17 A2993 RMK A01 T01770174  RH  098%=      5-min Rain = 0
KTH1 151145Z 04003KT 18/17 A2993 RMK A01 T01770174  RH  098%=      5-min Rain = 0
KTH1 151146Z 04003KT 18/17 A2993 RMK A01 T01760173  RH  098%=      5-min Rain = 0
KTH1 151147Z 05003KT 18/17 A2993 RMK A01 T01760173  RH  098%=      5-min Rain = 0
KTH1 151148Z 06003KT 18/17 A2993 RMK A01 T01750172  RH  098%=      5-min Rain = 0
KTH1 151149Z 06003KT 18/17 A2993 RMK A01 T01750172  RH  098%=      5-min Rain = 0
KTH1 151150Z 07003KT 18/17 A2993 RMK A01 T01750173  RH  098%=      5-min Rain = 0
KTH1 151151Z 08004KT 18/17 A2993 RMK A01 T01760173  RH  098%=      5-min Rain = 0
KTH1 151152Z 08004KT 18/17 A2993 RMK A01 T01770174  RH  098%=      5-min Rain = 0
KTH1 151153Z 08003KT 18/18 A2993 RMK A01 T01770175  RH  099%=      5-min Rain = 0
KTH1 151154Z 08004KT 18/18 A2994 RMK A01 T01770175  RH  099%=      5-min Rain = 0
KTH1 151155Z 09004KT 18/18 A2994 RMK A01 T01780175  RH  099%=      5-min Rain = 0
KTH1 151156Z 09003KT 18/18 A2994 RMK A01 T01770175  RH  098%=      5-min Rain = 0
KTH1 151157Z 09003KT 18/18 A2994 RMK A01 T01770175  RH  098%=      5-min Rain = 0
KTH1 151158Z 11002KT 18/17 A2994 RMK A01 T01760174  RH  098%=      5-min Rain = 0
KTH1 151159Z 12001KT 18/17 A2994 RMK A01 T01760173  RH  098%=      5-min Rain = 0
KTH1 151200Z 10002KT 18/17 A2994 RMK A01 T01750173  RH  098%=      5-min Rain = 0
KTH1 151201Z 09002KT 17/17 A2994 RMK A01 T01740172  RH  098%=      5-min Rain = 0
KTH1 151202Z 09002KT 17/17 A2994 RMK A01 T01740171  RH  098%=      5-min Rain = 0
KTH1 151203Z 12001KT 18/17 A2994 RMK A01 T01750172  RH  098%=      5-min Rain = 0
KTH1 151204Z 11002KT 18/17 A2994 RMK A01 T01750172  RH  098%=      5-min Rain = 0
KTH1 151205Z 10003KT 17/17 A2994 RMK A01 T01740172  RH  098%=      5-min Rain = 0
KTH1 151206Z 15002KT 17/17 A2994 RMK A01 T01740171  RH  098%=      5-min Rain = 0
KTH1 151207Z 16002KT 17/17 A2994 RMK A01 T01740171  RH  098%=      5-min Rain = 0
KTH1 151208Z 16002KT 17/17 A2995 RMK A01 T01730170  RH  098%=      5-min Rain = 0
KTH1 151209Z 17003KT 17/17 A2995 RMK A01 T01730170  RH  098%=      5-min Rain = 0
KTH1 151210Z 17002KT 17/17 A2995 RMK A01 T01740171  RH  098%=      5-min Rain = 0
KTH1 151211Z 17003KT 17/17 A2995 RMK A01 T01730170  RH  098%=      5-min Rain = 0
KTH1 151212Z 17002KT 17/17 A2995 RMK A01 T01740171  RH  098%=      5-min Rain = 0
KTH1 151213Z 16002KT 17/17 A2995 RMK A01 T01740171  RH  098%=      5-min Rain = 0
KTH1 151214Z 13002KT 18/17 A2995 RMK A01 T01750172  RH  098%=      5-min Rain = 0
KTH1 151215Z 12002KT 18/17 A2995 RMK A01 T01750173  RH  098%=      5-min Rain = 0
KTH1 151216Z 10002KT 18/17 A2995 RMK A01 T01760173  RH  098%=      5-min Rain = 0
KTH1 151217Z 09003KT 18/17 A2995 RMK A01 T01760174  RH  098%=      5-min Rain = 0
KTH1 151218Z 08002KT 18/17 A2996 RMK A01 T01770174  RH  098%=      5-min Rain = 0
KTH1 151219Z 08002KT 18/18 A2996 RMK A01 T01780175  RH  098%=      5-min Rain = 0
KTH1 151220Z 08002KT 18/18 A2996 RMK A01 T01780175  RH  098%=      5-min Rain = 0
KTH1 151221Z 09003KT 18/18 A2996 RMK A01 T01790176  RH  098%=      5-min Rain = 0
KTH1 151222Z 09003KT 18/18 A2996 RMK A01 T01790176  RH  098%=      5-min Rain = 0
KTH1 151223Z 08003KT 18/18 A2996 RMK A01 T01800177  RH  098%=      5-min Rain = 0
KTH1 151224Z 09003KT 18/18 A2996 RMK A01 T01810177  RH  098%=      5-min Rain = 0
KTH1 151225Z 10003KT 18/18 A2996 RMK A01 T01810178  RH  098%=      5-min Rain = 0
KTH1 151226Z 11002KT 18/18 A2996 RMK A01 T01820179  RH  098%=      5-min Rain = 0
KTH1 151227Z 11003KT 18/18 A2996 RMK A01 T01830180  RH  098%=      5-min Rain = 0
KTH1 151228Z 13002KT 18/18 A2996 RMK A01 T01840180  RH  098%=      5-min Rain = 0
KTH1 151229Z 11003KT 19/18 A2996 RMK A01 T01850181  RH  098%=      5-min Rain = 0
KTH1 151230Z 12003KT 19/18 A2996 RMK A01 T01860182  RH  097%=      5-min Rain = 0
KTH1 151231Z 12003KT 19/18 A2996 RMK A01 T01870182  RH  097%=      5-min Rain = 0
KTH1 151232Z 13002KT 19/18 A2996 RMK A01 T01880183  RH  097%=      5-min Rain = 0
KTH1 151233Z 12003KT 19/18 A2996 RMK A01 T01880183  RH  097%=      5-min Rain = 0
KTH1 151234Z 11004KT 19/18 A2996 RMK A01 T01890183  RH  096%=      5-min Rain = 0
KTH1 151235Z 11003KT 19/18 A2996 RMK A01 T01900183  RH  096%=      5-min Rain = 0
KTH1 151236Z 10003KT 19/18 A2996 RMK A01 T01900183  RH  096%=      5-min Rain = 0
KTH1 151237Z 10003KT 19/18 A2996 RMK A01 T01910184  RH  095%=      5-min Rain = 0
KTH1 151238Z 10002KT 19/19 A2996 RMK A01 T01920185  RH  095%=      5-min Rain = 0
KTH1 151239Z 11003KT 19/19 A2996 RMK A01 T01930186  RH  095%=      5-min Rain = 0
KTH1 151240Z 10003KT 19/19 A2996 RMK A01 T01940186  RH  095%=      5-min Rain = 0
KTH1 151241Z 10004KT 20/19 A2996 RMK A01 T01950185  RH  094%=      5-min Rain = 0
KTH1 151242Z 10003KT 20/19 A2996 RMK A01 T01950185  RH  094%=      5-min Rain = 0
KTH1 151243Z 10003KT 20/19 A2996 RMK A01 T01950185  RH  093%=      5-min Rain = 0
KTH1 151244Z 10003KT 20/19 A2996 RMK A01 T01960185  RH  093%=      5-min Rain = 0
KTH1 151245Z 10003KT 20/18 A2997 RMK A01 T01960184  RH  093%=      5-min Rain = 0
KTH1 151246Z 10004KT 20/19 A2997 RMK A01 T01960185  RH  093%=      5-min Rain = 0
KTH1 151247Z 11004KT 20/18 A2997 RMK A01 T01960184  RH  093%=      5-min Rain = 0
KTH1 151248Z 10005KT 20/18 A2997 RMK A01 T01960184  RH  093%=      5-min Rain = 0
KTH1 151249Z 10005KT 20/19 A2997 RMK A01 T01970185  RH  093%=      5-min Rain = 0
KTH1 151250Z 10004KT 20/19 A2997 RMK A01 T01970185  RH  093%=      5-min Rain = 0
KTH1 151251Z 11004KT 20/19 A2997 RMK A01 T01980185  RH  093%=      5-min Rain = 0
KTH1 151252Z 11004KT 20/19 A2997 RMK A01 T01980186  RH  093%=      5-min Rain = 0
KTH1 151253Z 11005KT 20/19 A2997 RMK A01 T01990186  RH  092%=      5-min Rain = 0
KTH1 151254Z 11005KT 20/19 A2997 RMK A01 T01990186  RH  092%=      5-min Rain = 0
KTH1 151255Z 13004KT 20/19 A2997 RMK A01 T02000186  RH  092%=      5-min Rain = 0
KTH1 151256Z 13004KT 20/19 A2997 RMK A01 T02000187  RH  092%=      5-min Rain = 0
KTH1 151257Z 13005KT 20/19 A2997 RMK A01 T02010188  RH  092%=      5-min Rain = 0
KTH1 151258Z 12005KT 20/19 A2997 RMK A01 T02020189  RH  092%=      5-min Rain = 0
KTH1 151259Z 12005KT 20/19 A2997 RMK A01 T02020189  RH  092%=      5-min Rain = 0
KTH1 151300Z 13005KT 20/19 A2996 RMK A01 T02030189  RH  092%=      5-min Rain = 0
KTH1 151301Z 13005KT 20/19 A2996 RMK A01 T02040189  RH  091%=      5-min Rain = 0
KTH1 151302Z 13005KT 21/19 A2996 RMK A01 T02050189  RH  091%=      5-min Rain = 0
KTH1 151303Z 13004KT 21/19 A2996 RMK A01 T02050189  RH  090%=      5-min Rain = 0
KTH1 151304Z 14004KT 21/19 A2996 RMK A01 T02050189  RH  090%=      5-min Rain = 0
KTH1 151305Z 14005KT 21/19 A2996 RMK A01 T02060190  RH  091%=      5-min Rain = 0
KTH1 151306Z 13004KT 21/19 A2996 RMK A01 T02060190  RH  090%=      5-min Rain = 0
KTH1 151307Z 14005KT 21/19 A2996 RMK A01 T02070191  RH  090%=      5-min Rain = 0
KTH1 151308Z 14005KT 21/19 A2996 RMK A01 T02080190  RH  090%=      5-min Rain = 0
KTH1 151309Z 14005KT 21/19 A2996 RMK A01 T02080190  RH  090%=      5-min Rain = 0
KTH1 151310Z 14003KT 21/19 A2996 RMK A01 T02090191  RH  089%=      5-min Rain = 0
KTH1 151311Z 15003KT 21/19 A2997 RMK A01 T02100191  RH  089%=      5-min Rain = 0
KTH1 151312Z 14004KT 21/19 A2997 RMK A01 T02100192  RH  089%=      5-min Rain = 0
KTH1 151313Z 15003KT 21/19 A2997 RMK A01 T02110191  RH  088%=      5-min Rain = 0
KTH1 151314Z 13004KT 21/19 A2997 RMK A01 T02120192  RH  088%=      5-min Rain = 0
KTH1 151315Z 14005KT 21/19 A2997 RMK A01 T02120191  RH  088%=      5-min Rain = 0
KTH1 151316Z 15004KT 21/19 A2997 RMK A01 T02120189  RH  087%=      5-min Rain = 0
KTH1 151317Z 15003KT 21/19 A2997 RMK A01 T02120189  RH  087%=      5-min Rain = 0
KTH1 151318Z 16003KT 21/19 A2997 RMK A01 T02130191  RH  087%=      5-min Rain = 0
KTH1 151319Z 15003KT 21/19 A2997 RMK A01 T02130192  RH  088%=      5-min Rain = 0
KTH1 151320Z 15004KT 21/19 A2997 RMK A01 T02140192  RH  087%=      5-min Rain = 0
KTH1 151321Z 16005KT 22/19 A2997 RMK A01 T02150193  RH  087%=      5-min Rain = 0
KTH1 151322Z 14002KT 22/19 A2997 RMK A01 T02160193  RH  087%=      5-min Rain = 0
KTH1 151323Z 16004KT 22/19 A2997 RMK A01 T02170193  RH  087%=      5-min Rain = 0
KTH1 151324Z 15004KT 22/19 A2997 RMK A01 T02180192  RH  085%=      5-min Rain = 0
KTH1 151325Z 15004KT 22/19 A2997 RMK A01 T02190192  RH  085%=      5-min Rain = 0
KTH1 151326Z 16004KT 22/19 A2997 RMK A01 T02190194  RH  085%=      5-min Rain = 0
KTH1 151327Z 16005KT 22/19 A2997 RMK A01 T02200194  RH  085%=      5-min Rain = 0
KTH1 151328Z 15004KT 22/19 A2997 RMK A01 T02200193  RH  084%=      5-min Rain = 0
KTH1 151329Z 15005KT 22/20 A2997 RMK A01 T02220195  RH  085%=      5-min Rain = 0
KTH1 151330Z 16004KT 22/19 A2997 RMK A01 T02220194  RH  084%=      5-min Rain = 0
KTH1 151331Z 14002KT 22/20 A2997 RMK A01 T02230195  RH  084%=      5-min Rain = 0
KTH1 151332Z 14003KT 22/20 A2997 RMK A01 T02240196  RH  084%=      5-min Rain = 0
KTH1 151333Z 14004KT 23/20 A2997 RMK A01 T02250195  RH  083%=      5-min Rain = 0
KTH1 151334Z 14004KT 23/20 A2997 RMK A01 T02260196  RH  083%=      5-min Rain = 0
KTH1 151335Z 15005KT 23/20 A2997 RMK A01 T02260196  RH  083%=      5-min Rain = 0
KTH1 151336Z 15006KT 23/19 A2997 RMK A01 T02270194  RH  082%=      5-min Rain = 0
KTH1 151337Z 14003KT 23/20 A2997 RMK A01 T02270195  RH  082%=      5-min Rain = 0
KTH1 151338Z 15004KT 23/20 A2997 RMK A01 T02280196  RH  082%=      5-min Rain = 0
KTH1 151339Z 15006KT 23/19 A2997 RMK A01 T02290194  RH  081%=      5-min Rain = 0
KTH1 151340Z 14005KT 23/20 A2997 RMK A01 T02300196  RH  081%=      5-min Rain = 0
KTH1 151341Z 15003KT 23/20 A2997 RMK A01 T02300196  RH  081%=      5-min Rain = 0
KTH1 151342Z 14008KT 23/20 A2997 RMK A01 T02320195  RH  080%=      5-min Rain = 0
KTH1 151343Z 15006KT 23/19 A2997 RMK A01 T02320192  RH  078%=      5-min Rain = 0
KTH1 151344Z 14006KT 23/19 A2997 RMK A01 T02320194  RH  079%=      5-min Rain = 0
KTH1 151345Z 15005KT 23/20 A2997 RMK A01 T02320195  RH  079%=      5-min Rain = 0
KTH1 151346Z 15007KT 23/20 A2998 RMK A01 T02330195  RH  079%=      5-min Rain = 0
KTH1 151347Z 14006KT 23/20 A2998 RMK A01 T02330195  RH  079%=      5-min Rain = 0
KTH1 151348Z 15007KT 23/19 A2998 RMK A01 T02340194  RH  078%=      5-min Rain = 0
KTH1 151349Z 14007KT 23/19 A2998 RMK A01 T02340193  RH  078%=      5-min Rain = 0
KTH1 151350Z 15006KT 23/20 A2998 RMK A01 T02340195  RH  078%=      5-min Rain = 0
KTH1 151351Z 15007KT 24/19 A2998 RMK A01 T02350194  RH  078%=      5-min Rain = 0
KTH1 151352Z 15007KT 24/19 A2998 RMK A01 T02350194  RH  078%=      5-min Rain = 0
KTH1 151353Z 15008KT 24/19 A2997 RMK A01 T02350193  RH  077%=      5-min Rain = 0
KTH1 151354Z 15008KT 24/19 A2997 RMK A01 T02350193  RH  077%=      5-min Rain = 0
KTH1 151355Z 15008KT 24/19 A2997 RMK A01 T02350193  RH  077%=      5-min Rain = 0
KTH1 151356Z 15009KT 24/19 A2997 RMK A01 T02350192  RH  077%=      5-min Rain = 0
KTH1 151357Z 15009KT 24/19 A2997 RMK A01 T02350191  RH  077%=      5-min Rain = 0
KTH1 151358Z 15007KT 24/19 A2997 RMK A01 T02350192  RH  077%=      5-min Rain = 0
KTH1 151359Z 15007KT 24/19 A2997 RMK A01 T02350193  RH  077%=      5-min Rain = 0
KTH1 151400Z 15009KT 24/19 A2997 RMK A01 T02360192  RH  076%=      5-min Rain = 0
KTH1 151401Z 15008KT 24/19 A2997 RMK A01 T02360191  RH  076%=      5-min Rain = 0
KTH1 151402Z 15008KT 24/19 A2997 RMK A01 T02360192  RH  076%=      5-min Rain = 0
KTH1 151403Z 15009KT 24/19 A2997 RMK A01 T02360191  RH  076%=      5-min Rain = 0
KTH1 151404Z 16008KT 24/19 A2997 RMK A01 T02360191  RH  076%=      5-min Rain = 0
KTH1 151405Z 16009KT 24/19 A2997 RMK A01 T02360190  RH  075%=      5-min Rain = 0
KTH1 151406Z 15007KT 24/19 A2997 RMK A01 T02360190  RH  075%=      5-min Rain = 0
KTH1 151407Z 16008KT 24/19 A2997 RMK A01 T02360189  RH  075%=      5-min Rain = 0
KTH1 151408Z 16006KT 24/19 A2997 RMK A01 T02370191  RH  075%=      5-min Rain = 0
KTH1 151409Z 16007KT 24/19 A2997 RMK A01 T02370189  RH  074%=      5-min Rain = 0
KTH1 151410Z 16007KT 24/19 A2997 RMK A01 T02380190  RH  074%=      5-min Rain = 0
KTH1 151411Z 16009KT 24/19 A2997 RMK A01 T02390189  RH  074%=      5-min Rain = 0
KTH1 151412Z 16007KT 24/19 A2997 RMK A01 T02390189  RH  074%=      5-min Rain = 0
KTH1 151413Z 15006KT 24/19 A2997 RMK A01 T02390190  RH  074%=      5-min Rain = 0
KTH1 151414Z 16005KT 24/19 A2997 RMK A01 T02400191  RH  074%=      5-min Rain = 0
KTH1 151415Z 16004KT 24/19 A2997 RMK A01 T02410193  RH  075%=      5-min Rain = 0
KTH1 151416Z 16007KT 24/19 A2997 RMK A01 T02420193  RH  074%=      5-min Rain = 0
KTH1 151417Z 17008KT 24/19 A2997 RMK A01 T02430191  RH  073%=      5-min Rain = 0
KTH1 151418Z 14008KT 24/19 A2997 RMK A01 T02420191  RH  073%=      5-min Rain = 0
KTH1 151419Z 15009KT 24/19 A2997 RMK A01 T02420191  RH  073%=      5-min Rain = 0
KTH1 151420Z 14008KT 24/19 A2997 RMK A01 T02410191  RH  073%=      5-min Rain = 0
KTH1 151421Z 14009KT 24/19 A2998 RMK A01 T02410191  RH  073%=      5-min Rain = 0
KTH1 151422Z 15007KT 24/19 A2998 RMK A01 T02410190  RH  073%=      5-min Rain = 0
KTH1 151423Z 15008KT 24/19 A2998 RMK A01 T02410190  RH  073%=      5-min Rain = 0
KTH1 151424Z 16007KT 24/19 A2998 RMK A01 T02410192  RH  074%=      5-min Rain = 0
KTH1 151425Z 17006KT 24/19 A2998 RMK A01 T02420192  RH  074%=      5-min Rain = 0
KTH1 151426Z 15005KT 24/19 A2998 RMK A01 T02420194  RH  074%=      5-min Rain = 0
KTH1 151427Z 15006KT 24/19 A2998 RMK A01 T02440193  RH  073%=      5-min Rain = 0
KTH1 151428Z 15005KT 24/19 A2997 RMK A01 T02440192  RH  073%=      5-min Rain = 0
KTH1 151429Z 16006KT 25/19 A2997 RMK A01 T02460194  RH  073%=      5-min Rain = 0
KTH1 151430Z 17007KT 25/19 A2997 RMK A01 T02460192  RH  072%=      5-min Rain = 0
KTH1 151431Z 16005KT 25/19 A2997 RMK A01 T02460192  RH  072%=      5-min Rain = 0
KTH1 151432Z 15005KT 25/19 A2997 RMK A01 T02470193  RH  072%=      5-min Rain = 0
KTH1 151433Z 15004KT 25/19 A2997 RMK A01 T02470191  RH  071%=      5-min Rain = 0
KTH1 151434Z 15006KT 25/19 A2997 RMK A01 T02470193  RH  072%=      5-min Rain = 0
KTH1 151435Z 15007KT 25/19 A2997 RMK A01 T02480192  RH  071%=      5-min Rain = 0
KTH1 151436Z 16007KT 25/19 A2997 RMK A01 T02490193  RH  071%=      5-min Rain = 0
KTH1 151437Z 16006KT 25/19 A2998 RMK A01 T02490193  RH  071%=      5-min Rain = 0
KTH1 151438Z 17006KT 25/20 A2998 RMK A01 T02490195  RH  072%=      5-min Rain = 0
KTH1 151439Z 16006KT 25/19 A2998 RMK A01 T02500194  RH  071%=      5-min Rain = 0
KTH1 151440Z 16006KT 25/19 A2998 RMK A01 T02500194  RH  071%=      5-min Rain = 0
KTH1 151441Z 15008KT 25/19 A2997 RMK A01 T02490192  RH  070%=      5-min Rain = 0
KTH1 151442Z 15007KT 25/19 A2997 RMK A01 T02480190  RH  070%=      5-min Rain = 0
KTH1 151443Z 14007KT 25/19 A2997 RMK A01 T02470191  RH  071%=      5-min Rain = 0
KTH1 151444Z 15008KT 25/19 A2997 RMK A01 T02470191  RH  071%=      5-min Rain = 0
KTH1 151445Z 15009KT 25/19 A2997 RMK A01 T02470191  RH  071%=      5-min Rain = 0
KTH1 151446Z 14006KT 25/19 A2997 RMK A01 T02470191  RH  071%=      5-min Rain = 0
KTH1 151447Z 15006KT 25/19 A2997 RMK A01 T02470194  RH  072%=      5-min Rain = 0
KTH1 151448Z 15007KT 25/19 A2997 RMK A01 T02490193  RH  071%=      5-min Rain = 0
KTH1 151449Z 15006KT 25/19 A2997 RMK A01 T02490191  RH  070%=      5-min Rain = 0
KTH1 151450Z 15007KT 25/19 A2997 RMK A01 T02490193  RH  071%=      5-min Rain = 0
KTH1 151451Z 15008KT 25/19 A2997 RMK A01 T02490193  RH  071%=      5-min Rain = 0
KTH1 151452Z 14007KT 25/19 A2997 RMK A01 T02500193  RH  071%=      5-min Rain = 0
KTH1 151453Z 16005KT 25/20 A2997 RMK A01 T02500195  RH  072%=      5-min Rain = 0
KTH1 151454Z 16005KT 25/20 A2997 RMK A01 T02520199  RH  072%=      5-min Rain = 0
KTH1 151455Z 16007KT 26/20 A2997 RMK A01 T02550196  RH  070%=      5-min Rain = 0
KTH1 151456Z 15006KT 26/19 A2997 RMK A01 T02550193  RH  069%=      5-min Rain = 0
KTH1 151457Z 16006KT 26/19 A2997 RMK A01 T02550193  RH  069%=      5-min Rain = 0
KTH1 151458Z 17007KT 26/19 A2997 RMK A01 T02550194  RH  069%=      5-min Rain = 0
KTH1 151459Z 15005KT 25/19 A2997 RMK A01 T02540194  RH  069%=      5-min Rain = 0
KTH1 151500Z 14006KT 25/20 A2997 RMK A01 T02540195  RH  070%=      5-min Rain = 0
KTH1 151501Z 15006KT 26/20 A2997 RMK A01 T02550196  RH  070%=      5-min Rain = 0
KTH1 151502Z 17005KT 26/20 A2997 RMK A01 T02560198  RH  071%=      5-min Rain = 0
KTH1 151503Z 15005KT 26/20 A2997 RMK A01 T02580201  RH  071%=      5-min Rain = 0
KTH1 151504Z 18006KT 26/20 A2997 RMK A01 T02590198  RH  069%=      5-min Rain = 0
KTH1 151505Z 15007KT 26/20 A2997 RMK A01 T02590197  RH  069%=      5-min Rain = 0
KTH1 151506Z 14009KT 26/20 A2997 RMK A01 T02580196  RH  069%=      5-min Rain = 0
KTH1 151507Z 14008KT 26/19 A2997 RMK A01 T02570194  RH  068%=      5-min Rain = 0
KTH1 151508Z 14004KT 26/20 A2997 RMK A01 T02550198  RH  071%=      5-min Rain = 0
KTH1 151509Z 14007KT 26/20 A2997 RMK A01 T02570200  RH  071%=      5-min Rain = 0
KTH1 151510Z 15006G11KT 26/20 A2997 RMK A01 T02580200  RH  070%=      5-min Rain = 0
KTH1 151511Z 16006KT 26/20 A2997 RMK A01 T02600200  RH  070%=      5-min Rain = 0
KTH1 151512Z 16008KT 26/20 A2997 RMK A01 T02610198  RH  068%=      5-min Rain = 0
KTH1 151513Z 17009KT 26/20 A2997 RMK A01 T02600196  RH  068%=      5-min Rain = 0
KTH1 151514Z 17008KT 26/20 A2997 RMK A01 T02590196  RH  069%=      5-min Rain = 0
KTH1 151515Z 16007KT 26/20 A2997 RMK A01 T02570196  RH  069%=      5-min Rain = 0
KTH1 151516Z 13005KT 26/20 A2997 RMK A01 T02560198  RH  070%=      5-min Rain = 0
KTH1 151517Z 14007KT 26/20 A2997 RMK A01 T02570196  RH  069%=      5-min Rain = 0
KTH1 151518Z 13006KT 26/20 A2997 RMK A01 T02570197  RH  069%=      5-min Rain = 0
KTH1 151519Z 13007KT 26/20 A2997 RMK A01 T02580197  RH  069%=      5-min Rain = 0
KTH1 151520Z 16007KT 26/20 A2997 RMK A01 T02590200  RH  070%=      5-min Rain = 0
KTH1 151521Z 15007KT 26/20 A2997 RMK A01 T02610198  RH  068%=      5-min Rain = 0
KTH1 151522Z 16005KT 26/20 A2997 RMK A01 T02610197  RH  068%=      5-min Rain = 0
KTH1 151523Z 16004KT 26/20 A2997 RMK A01 T02620197  RH  068%=      5-min Rain = 0
KTH1 151524Z 19004KT 26/20 A2997 RMK A01 T02610198  RH  068%=      5-min Rain = 0
KTH1 151525Z 18005KT 26/20 A2997 RMK A01 T02610198  RH  068%=      5-min Rain = 0
KTH1 151526Z 16006KT 26/20 A2997 RMK A01 T02620201  RH  069%=      5-min Rain = 0
KTH1 151527Z 15006KT 26/20 A2997 RMK A01 T02630201  RH  068%=      5-min Rain = 0
KTH1 151528Z 16007KT 27/20 A2997 RMK A01 T02650202  RH  068%=      5-min Rain = 0
KTH1 151529Z 16007KT 27/20 A2997 RMK A01 T02660197  RH  066%=      5-min Rain = 0
KTH1 151530Z 15009KT 27/20 A2997 RMK A01 T02650198  RH  066%=      5-min Rain = 0
KTH1 151531Z 15008KT 27/20 A2997 RMK A01 T02650196  RH  066%=      5-min Rain = 0
KTH1 151532Z 15007KT 26/20 A2997 RMK A01 T02640198  RH  067%=      5-min Rain = 0
KTH1 151533Z 16006KT 27/20 A2997 RMK A01 T02650196  RH  066%=      5-min Rain = 0
KTH1 151534Z 13003KT 26/20 A2997 RMK A01 T02640203  RH  069%=      5-min Rain = 0
KTH1 151535Z 13004KT 27/20 A2997 RMK A01 T02660199  RH  067%=      5-min Rain = 0
KTH1 151536Z 17004KT 27/20 A2997 RMK A01 T02680201  RH  067%=      5-min Rain = 0
KTH1 151537Z 16006KT 27/20 A2997 RMK A01 T02690200  RH  066%=      5-min Rain = 0
KTH1 151538Z 16007KT 27/20 A2997 RMK A01 T02700201  RH  066%=      5-min Rain = 0
KTH1 151539Z 17007KT 27/20 A2997 RMK A01 T02710199  RH  065%=      5-min Rain = 0
KTH1 151540Z 14009KT 27/20 A2997 RMK A01 T02700198  RH  064%=      5-min Rain = 0
KTH1 151541Z 15005KT 27/20 A2997 RMK A01 T02690196  RH  064%=      5-min Rain = 0
KTH1 151542Z 15004KT 27/20 A2997 RMK A01 T02690197  RH  065%=      5-min Rain = 0
KTH1 151543Z 13006KT 27/20 A2998 RMK A01 T02690198  RH  065%=      5-min Rain = 0
KTH1 151544Z 14008KT 27/20 A2998 RMK A01 T02700203  RH  067%=      5-min Rain = 0
KTH1 151545Z 15007KT 27/20 A2998 RMK A01 T02720198  RH  064%=      5-min Rain = 0
KTH1 151546Z 15007KT 27/20 A2998 RMK A01 T02730199  RH  064%=      5-min Rain = 0
KTH1 151547Z 16006KT 27/20 A2998 RMK A01 T02720197  RH  063%=      5-min Rain = 0
KTH1 151548Z 16005KT 27/20 A2997 RMK A01 T02720201  RH  065%=      5-min Rain = 0
KTH1 151549Z 16006KT 27/20 A2997 RMK A01 T02720199  RH  064%=      5-min Rain = 0
KTH1 151550Z 16006KT 27/20 A2997 RMK A01 T02730200  RH  065%=      5-min Rain = 0
KTH1 151551Z 14006KT 27/20 A2997 RMK A01 T02740202  RH  065%=      5-min Rain = 0
KTH1 151552Z 16009KT 28/20 A2997 RMK A01 T02750202  RH  064%=      5-min Rain = 0
KTH1 151553Z 15007KT 28/20 A2997 RMK A01 T02750201  RH  064%=      5-min Rain = 0
KTH1 151554Z 15005KT 28/20 A2997 RMK A01 T02750199  RH  063%=      5-min Rain = 0
KTH1 151555Z 15006KT 28/20 A2997 RMK A01 T02750198  RH  063%=      5-min Rain = 0
KTH1 151556Z 16008KT 28/20 A2997 RMK A01 T02750199  RH  063%=      5-min Rain = 0
KTH1 151557Z 17005KT 27/20 A2997 RMK A01 T02740200  RH  064%=      5-min Rain = 0
KTH1 151558Z 18006KT 27/20 A2997 RMK A01 T02740201  RH  064%=      5-min Rain = 0
KTH1 151559Z 18005KT 27/20 A2997 RMK A01 T02740198  RH  063%=      5-min Rain = 0
KTH1 151600Z 18005KT 27/20 A2997 RMK A01 T02740197  RH  063%=      5-min Rain = 0
KTH1 151601Z 18005KT 27/20 A2997 RMK A01 T02740200  RH  064%=      5-min Rain = 0
KTH1 151602Z 17003KT 27/20 A2997 RMK A01 T02740201  RH  064%=      5-min Rain = 0
KTH1 151603Z 18004KT 28/20 A2998 RMK A01 T02750201  RH  064%=      5-min Rain = 0
KTH1 151604Z 17003KT 28/20 A2998 RMK A01 T02760201  RH  064%=      5-min Rain = 0
KTH1 151605Z 13004KT 28/20 A2998 RMK A01 T02760204  RH  065%=      5-min Rain = 0
KTH1 151606Z 16005KT 28/20 A2998 RMK A01 T02770201  RH  064%=      5-min Rain = 0
KTH1 151607Z 16004KT 28/20 A2998 RMK A01 T02780204  RH  064%=      5-min Rain = 0
KTH1 151608Z 14003KT 28/21 A2998 RMK A01 T02790205  RH  064%=      5-min Rain = 0
KTH1 151609Z 16004KT 28/20 A2998 RMK A01 T02810202  RH  062%=      5-min Rain = 0
KTH1 151610Z 16005KT 28/20 A2998 RMK A01 T02810198  RH  061%=      5-min Rain = 0
KTH1 151611Z 17003KT 28/20 A2998 RMK A01 T02790202  RH  063%=      5-min Rain = 0
KTH1 151612Z 17002KT 28/21 A2998 RMK A01 T02790205  RH  064%=      5-min Rain = 0
KTH1 151613Z 18002KT 28/21 A2998 RMK A01 T02800206  RH  064%=      5-min Rain = 0
KTH1 151614Z 17003KT 28/20 A2998 RMK A01 T02820202  RH  062%=      5-min Rain = 0
KTH1 151615Z 19002KT 28/20 A2998 RMK A01 T02820200  RH  061%=      5-min Rain = 0
KTH1 151616Z 17001KT 28/20 A2998 RMK A01 T02820195  RH  059%=      5-min Rain = 0
KTH1 151617Z 15001KT 28/20 A2998 RMK A01 T02820198  RH  060%=      5-min Rain = 0
KTH1 151618Z 13002KT 28/20 A2998 RMK A01 T02840204  RH  062%=      5-min Rain = 0
KTH1 151619Z 14006KT 29/21 A2998 RMK A01 T02860206  RH  062%=      5-min Rain = 0
KTH1 151620Z 15003KT 29/20 A2998 RMK A01 T02880202  RH  060%=      5-min Rain = 0
KTH1 151621Z 16004KT 29/20 A2998 RMK A01 T02880204  RH  060%=      5-min Rain = 0
KTH1 151622Z 14004KT 29/20 A2998 RMK A01 T02890201  RH  059%=      5-min Rain = 0
KTH1 151623Z 09003KT 29/20 A2998 RMK A01 T02870197  RH  058%=      5-min Rain = 0
KTH1 151624Z 10004KT 28/20 A2998 RMK A01 T02840198  RH  060%=      5-min Rain = 0
KTH1 151625Z 12004KT 28/20 A2998 RMK A01 T02820200  RH  061%=      5-min Rain = 0
KTH1 151626Z 12004KT 28/20 A2998 RMK A01 T02790196  RH  061%=      5-min Rain = 0
KTH1 151627Z 25001KT 28/20 A2998 RMK A01 T02760199  RH  063%=      5-min Rain = 0
KTH1 151628Z 31000KT 28/20 A2998 RMK A01 T02760198  RH  063%=      5-min Rain = 0
KTH1 151629Z 21002KT 28/20 A2998 RMK A01 T02760197  RH  062%=      5-min Rain = 0
KTH1 151630Z 16004KT 28/20 A2998 RMK A01 T02770202  RH  064%=      5-min Rain = 0
KTH1 151631Z 18003KT 28/20 A2998 RMK A01 T02770197  RH  062%=      5-min Rain = 0
KTH1 151632Z 17002KT 28/20 A2998 RMK A01 T02760199  RH  063%=      5-min Rain = 0
KTH1 151633Z 17002KT 28/20 A2998 RMK A01 T02750199  RH  063%=      5-min Rain = 0
KTH1 151634Z 12002KT 27/20 A2998 RMK A01 T02740199  RH  063%=      5-min Rain = 0
KTH1 151635Z 10004KT 27/20 A2998 RMK A01 T02740198  RH  063%=      5-min Rain = 0
KTH1 151636Z 08003KT 27/20 A2998 RMK A01 T02740196  RH  062%=      5-min Rain = 0
KTH1 151637Z 11003KT 27/20 A2998 RMK A01 T02730197  RH  063%=      5-min Rain = 0
KTH1 151638Z 14003KT 27/20 A2998 RMK A01 T02730198  RH  063%=      5-min Rain = 0
KTH1 151639Z 16003KT 27/20 A2999 RMK A01 T02730200  RH  064%=      5-min Rain = 0
KTH1 151640Z 15003KT 27/20 A2999 RMK A01 T02740199  RH  064%=      5-min Rain = 0
KTH1 151641Z 15003KT 27/20 A2999 RMK A01 T02740197  RH  063%=      5-min Rain = 0
KTH1 151642Z 17003KT 28/20 A2999 RMK A01 T02750204  RH  065%=      5-min Rain = 0
KTH1 151643Z 16002KT 28/20 A2999 RMK A01 T02760198  RH  063%=      5-min Rain = 0
KTH1 151644Z 18002KT 28/20 A2999 RMK A01 T02770199  RH  062%=      5-min Rain = 0
KTH1 151645Z 20001KT 28/20 A2999 RMK A01 T02780204  RH  064%=      5-min Rain = 0
KTH1 151646Z 18002KT 28/20 A2999 RMK A01 T02800202  RH  063%=      5-min Rain = 0
KTH1 151647Z 19003KT 28/20 A2999 RMK A01 T02800198  RH  061%=      5-min Rain = 0
KTH1 151648Z 21003KT 28/20 A2999 RMK A01 T02800200  RH  062%=      5-min Rain = 0
KTH1 151649Z 20001KT 28/20 A2999 RMK A01 T02790204  RH  063%=      5-min Rain = 0
KTH1 151650Z 24001KT 28/21 A2999 RMK A01 T02800206  RH  064%=      5-min Rain = 0
KTH1 151651Z 23003KT 28/20 A2999 RMK A01 T02800201  RH  062%=      5-min Rain = 0
KTH1 151652Z 25002KT 28/20 A2999 RMK A01 T02790202  RH  063%=      5-min Rain = 0
KTH1 151653Z 24002KT 28/20 A2999 RMK A01 T02780201  RH  063%=      5-min Rain = 0
KTH1 151654Z 21001KT 28/20 A2999 RMK A01 T02770199  RH  062%=      5-min Rain = 0
KTH1 151655Z 25001KT 28/20 A2999 RMK A01 T02770201  RH  063%=      5-min Rain = 0
KTH1 151656Z 26001KT 28/20 A2999 RMK A01 T02770198  RH  062%=      5-min Rain = 0
KTH1 151657Z 26001KT 28/20 A2999 RMK A01 T02770198  RH  062%=      5-min Rain = 0
KTH1 151658Z 28001KT 28/20 A2999 RMK A01 T02770200  RH  063%=      5-min Rain = 0
KTH1 151659Z 31000KT 28/20 A2999 RMK A01 T02770201  RH  063%=      5-min Rain = 0
KTH1 151700Z 25001KT 28/20 A2999 RMK A01 T02770204  RH  064%=      5-min Rain = 0
KTH1 151701Z 26001KT 28/20 A2999 RMK A01 T02780199  RH  062%=      5-min Rain = 0
KTH1 151702Z 27001KT 28/20 A2999 RMK A01 T02780202  RH  064%=      5-min Rain = 0
KTH1 151703Z 26001KT 28/20 A2999 RMK A01 T02770203  RH  064%=      5-min Rain = 0
KTH1 151704Z 26001KT 28/20 A2999 RMK A01 T02770201  RH  063%=      5-min Rain = 0
KTH1 151705Z 28002KT 28/20 A2999 RMK A01 T02770204  RH  064%=      5-min Rain = 0
KTH1 151706Z 28001KT 28/21 A2999 RMK A01 T02760205  RH  065%=      5-min Rain = 0
KTH1 151707Z 28001KT 28/20 A2999 RMK A01 T02770202  RH  064%=      5-min Rain = 0
KTH1 151708Z 28001KT 28/21 A2999 RMK A01 T02760205  RH  065%=      5-min Rain = 0
KTH1 151709Z 28001KT 28/20 A2999 RMK A01 T02760200  RH  063%=      5-min Rain = 0
KTH1 151710Z 29001KT 28/20 A2999 RMK A01 T02760203  RH  064%=      5-min Rain = 0
KTH1 151711Z 28002KT 28/21 A2999 RMK A01 T02760205  RH  065%=      5-min Rain = 0
KTH1 151712Z 28001KT 28/21 A2999 RMK A01 T02760205  RH  065%=      5-min Rain = 0
KTH1 151713Z 27001KT 28/21 A2999 RMK A01 T02760207  RH  066%=      5-min Rain = 0
KTH1 151714Z 28002KT 28/21 A2999 RMK A01 T02760207  RH  066%=      5-min Rain = 0
KTH1 151715Z 27001KT 28/21 A2999 RMK A01 T02780206  RH  065%=      5-min Rain = 0
KTH1 151716Z 25002KT 28/21 A2999 RMK A01 T02780205  RH  064%=      5-min Rain = 0
KTH1 151717Z 25002KT 28/20 A2999 RMK A01 T02780201  RH  063%=      5-min Rain = 0
KTH1 151718Z 25002KT 28/20 A2999 RMK A01 T02780200  RH  062%=      5-min Rain = 0
KTH1 151719Z 25001KT 28/20 A2999 RMK A01 T02780199  RH  062%=      5-min Rain = 0
KTH1 151720Z 26001KT 28/20 A2999 RMK A01 T02780201  RH  063%=      5-min Rain = 0
KTH1 151721Z 27001KT 28/20 A2999 RMK A01 T02780199  RH  062%=      5-min Rain = 0
KTH1 151722Z 27001KT 28/20 A2999 RMK A01 T02780199  RH  062%=      5-min Rain = 0
KTH1 151723Z 25001KT 28/20 A2999 RMK A01 T02790202  RH  063%=      5-min Rain = 0
KTH1 151724Z 26001KT 28/20 A2999 RMK A01 T02790202  RH  063%=      5-min Rain = 0
KTH1 151725Z 27002KT 28/20 A2998 RMK A01 T02800203  RH  063%=      5-min Rain = 0
KTH1 151726Z 27001KT 28/21 A2998 RMK A01 T02790206  RH  065%=      5-min Rain = 0
KTH1 151727Z 27001KT 28/20 A2998 RMK A01 T02800202  RH  063%=      5-min Rain = 0
KTH1 151728Z 24000KT 28/20 A2998 RMK A01 T02800203  RH  063%=      5-min Rain = 0
KTH1 151729Z 18000KT 28/21 A2998 RMK A01 T02800205  RH  064%=      5-min Rain = 0
KTH1 151730Z 10001KT 28/20 A2998 RMK A01 T02810203  RH  063%=      5-min Rain = 0
KTH1 151731Z 14003KT 28/20 A2998 RMK A01 T02810200  RH  061%=      5-min Rain = 0
KTH1 151732Z 14003KT 28/20 A2998 RMK A01 T02810203  RH  062%=      5-min Rain = 0
KTH1 151733Z 13003KT 28/20 A2998 RMK A01 T02810203  RH  062%=      5-min Rain = 0
KTH1 151734Z 14002KT 28/20 A2998 RMK A01 T02810202  RH  062%=      5-min Rain = 0
KTH1 151735Z 12003KT 28/21 A2998 RMK A01 T02810206  RH  064%=      5-min Rain = 0
KTH1 151736Z 13003KT 28/20 A2998 RMK A01 T02820204  RH  063%=      5-min Rain = 0
KTH1 151737Z 17003KT 28/21 A2998 RMK A01 T02820205  RH  063%=      5-min Rain = 0
KTH1 151738Z 18002KT 28/21 A2998 RMK A01 T02830206  RH  063%=      5-min Rain = 0
KTH1 151739Z 19003KT 28/21 A2998 RMK A01 T02830205  RH  062%=      5-min Rain = 0
KTH1 151740Z 16002KT 28/20 A2998 RMK A01 T02830204  RH  062%=      5-min Rain = 0
KTH1 151741Z 12001KT 28/21 A2998 RMK A01 T02820206  RH  063%=      5-min Rain = 0
KTH1 151742Z 12003KT 28/21 A2998 RMK A01 T02820206  RH  063%=      5-min Rain = 0
KTH1 151743Z 12004KT 28/21 A2998 RMK A01 T02830205  RH  063%=      5-min Rain = 0
KTH1 151744Z 13004KT 28/20 A2998 RMK A01 T02830203  RH  062%=      5-min Rain = 0
KTH1 151745Z 12004KT 28/21 A2997 RMK A01 T02830206  RH  063%=      5-min Rain = 0
KTH1 151746Z 11004KT 28/21 A2997 RMK A01 T02830205  RH  063%=      5-min Rain = 0
KTH1 151747Z 13003KT 28/21 A2997 RMK A01 T02830208  RH  064%=      5-min Rain = 0
KTH1 151748Z 12005KT 28/21 A2997 RMK A01 T02830210  RH  065%=      5-min Rain = 0
KTH1 151749Z 12006KT 28/21 A2997 RMK A01 T02840205  RH  062%=      5-min Rain = 0
KTH1 151750Z 13004KT 28/21 A2997 RMK A01 T02840208  RH  063%=      5-min Rain = 0
KTH1 151751Z 14003KT 28/21 A2997 RMK A01 T02840211  RH  064%=      5-min Rain = 0
KTH1 151752Z 16003KT 29/21 A2997 RMK A01 T02860206  RH  062%=      5-min Rain = 0
KTH1 151753Z 14002KT 29/21 A2998 RMK A01 T02880208  RH  062%=      5-min Rain = 0
KTH1 151754Z 16002KT 29/22 A2998 RMK A01 T02910219  RH  065%=      5-min Rain = 0
KTH1 151755Z 16005KT 29/21 A2998 RMK A01 T02940212  RH  061%=      5-min Rain = 0
KTH1 151756Z 18005KT 30/21 A2998 RMK A01 T02950209  RH  060%=      5-min Rain = 0
KTH1 151757Z 18004KT 29/21 A2998 RMK A01 T02940209  RH  060%=      5-min Rain = 0
KTH1 151758Z 18003KT 29/21 A2998 RMK A01 T02930206  RH  059%=      5-min Rain = 0
KTH1 151759Z 21004KT 29/21 A2998 RMK A01 T02920205  RH  059%=      5-min Rain = 0
KTH1 151800Z 24002KT 29/20 A2998 RMK A01 T02900202  RH  059%=      5-min Rain = 0
KTH1 151801Z 27000KT 29/21 A2998 RMK A01 T02880207  RH  062%=      5-min Rain = 0
KTH1 151802Z 23001KT 29/21 A2998 RMK A01 T02890211  RH  063%=      5-min Rain = 0
KTH1 151803Z 24003KT 29/21 A2998 RMK A01 T02910210  RH  062%=      5-min Rain = 0
KTH1 151804Z 23003KT 29/21 A2998 RMK A01 T02940211  RH  061%=      5-min Rain = 0
KTH1 151805Z 22003KT 30/20 A2998 RMK A01 T02960204  RH  058%=      5-min Rain = 0
KTH1 151806Z 28001KT 30/21 A2997 RMK A01 T02950209  RH  060%=      5-min Rain = 0
KTH1 151807Z 30002KT 30/20 A2997 RMK A01 T02960203  RH  058%=      5-min Rain = 0
KTH1 151808Z 30002KT 30/21 A2997 RMK A01 T02960205  RH  058%=      5-min Rain = 0
KTH1 151809Z 24002KT 30/21 A2997 RMK A01 T02960206  RH  058%=      5-min Rain = 0
KTH1 151810Z 15002KT 30/21 A2997 RMK A01 T02960207  RH  059%=      5-min Rain = 0
KTH1 151811Z 15004KT 30/21 A2997 RMK A01 T02980207  RH  058%=      5-min Rain = 0
KTH1 151812Z 17004G9KT 30/21 A2997 RMK A01 T02990209  RH  059%=      5-min Rain = 0
KTH1 151813Z 17007KT 30/21 A2997 RMK A01 T02990208  RH  058%=      5-min Rain = 0
KTH1 151814Z 16006KT 30/21 A2997 RMK A01 T02980209  RH  059%=      5-min Rain = 0
KTH1 151815Z 14007KT 30/21 A2997 RMK A01 T02960205  RH  058%=      5-min Rain = 0
KTH1 151816Z 13003KT 29/20 A2997 RMK A01 T02940204  RH  058%=      5-min Rain = 0
KTH1 151817Z 11001KT 29/20 A2997 RMK A01 T02930203  RH  058%=      5-min Rain = 0
KTH1 151818Z 11005KT 29/21 A2997 RMK A01 T02920207  RH  060%=      5-min Rain = 0
KTH1 151819Z 12006KT 29/21 A2997 RMK A01 T02920205  RH  059%=      5-min Rain = 0
KTH1 151820Z 14005KT 29/21 A2997 RMK A01 T02930209  RH  060%=      5-min Rain = 0
KTH1 151821Z 14004KT 29/21 A2997 RMK A01 T02930207  RH  060%=      5-min Rain = 0
KTH1 151822Z 15006KT 29/21 A2997 RMK A01 T02940210  RH  061%=      5-min Rain = 0
KTH1 151823Z 18006KT 30/21 A2997 RMK A01 T02970209  RH  059%=      5-min Rain = 0
KTH1 151824Z 17007KT 30/21 A2997 RMK A01 T02990209  RH  058%=      5-min Rain = 0
KTH1 151825Z 17006KT 30/21 A2996 RMK A01 T03000205  RH  057%=      5-min Rain = 0
KTH1 151826Z 17005KT 30/21 A2996 RMK A01 T03010212  RH  059%=      5-min Rain = 0
KTH1 151827Z 15004KT 30/21 A2996 RMK A01 T03010206  RH  057%=      5-min Rain = 0
KTH1 151828Z 14004KT 30/21 A2996 RMK A01 T03010208  RH  057%=      5-min Rain = 0
KTH1 151829Z 15004KT 30/21 A2996 RMK A01 T03010210  RH  058%=      5-min Rain = 0
KTH1 151830Z 15005KT 30/21 A2996 RMK A01 T03010210  RH  058%=      5-min Rain = 0
KTH1 151831Z 16004KT 30/21 A2996 RMK A01 T02990209  RH  059%=      5-min Rain = 0
KTH1 151832Z 19004KT 30/21 A2996 RMK A01 T02990212  RH  060%=      5-min Rain = 0
KTH1 151833Z 17004KT 30/21 A2996 RMK A01 T02990210  RH  059%=      5-min Rain = 0
KTH1 151834Z 16004KT 30/21 A2996 RMK A01 T03000212  RH  059%=      5-min Rain = 0
KTH1 151835Z 16005KT 30/21 A2996 RMK A01 T03010209  RH  058%=      5-min Rain = 0
KTH1 151836Z 14008KT 30/21 A2996 RMK A01 T03010209  RH  058%=      5-min Rain = 0
KTH1 151837Z 14007KT 30/21 A2996 RMK A01 T03010210  RH  058%=      5-min Rain = 0
KTH1 151838Z 14004KT 30/21 A2996 RMK A01 T03000213  RH  060%=      5-min Rain = 0
KTH1 151839Z 14005KT 30/22 A2996 RMK A01 T03030216  RH  060%=      5-min Rain = 0
KTH1 151840Z 13006KT 31/22 A2996 RMK A01 T03050215  RH  059%=      5-min Rain = 0
KTH1 151841Z 14006KT 31/21 A2996 RMK A01 T03070210  RH  056%=      5-min Rain = 0
KTH1 151842Z 12005KT 31/21 A2996 RMK A01 T03070209  RH  056%=      5-min Rain = 0
KTH1 151843Z 13006KT 31/21 A2996 RMK A01 T03060211  RH  057%=      5-min Rain = 0
KTH1 151844Z 13005KT 31/21 A2996 RMK A01 T03050209  RH  057%=      5-min Rain = 0
KTH1 151845Z 15005KT 30/21 A2996 RMK A01 T03040209  RH  057%=      5-min Rain = 0
KTH1 151846Z 13005KT 30/21 A2995 RMK A01 T03030212  RH  058%=      5-min Rain = 0
KTH1 151847Z 17005KT 30/21 A2995 RMK A01 T03040212  RH  058%=      5-min Rain = 0
KTH1 151848Z 16005KT 31/21 A2995 RMK A01 T03050210  RH  057%=      5-min Rain = 0
KTH1 151849Z 15004KT 31/21 A2995 RMK A01 T03050211  RH  057%=      5-min Rain = 0
KTH1 151850Z 14008KT 31/21 A2995 RMK A01 T03060213  RH  057%=      5-min Rain = 0
KTH1 151851Z 14006KT 31/22 A2995 RMK A01 T03070215  RH  058%=      5-min Rain = 0
KTH1 151852Z 12006KT 31/21 A2995 RMK A01 T03080209  RH  056%=      5-min Rain = 0
KTH1 151853Z 11004KT 31/21 A2995 RMK A01 T03060207  RH  055%=      5-min Rain = 0
KTH1 151854Z 15004KT 30/21 A2995 RMK A01 T03040213  RH  058%=      5-min Rain = 0
KTH1 151855Z 15008KT 30/21 A2995 RMK A01 T03040212  RH  058%=      5-min Rain = 0
KTH1 151856Z 16009KT 31/21 A2995 RMK A01 T03050208  RH  056%=      5-min Rain = 0
KTH1 151857Z 16006KT 31/21 A2995 RMK A01 T03050210  RH  057%=      5-min Rain = 0
KTH1 151858Z 15004KT 31/21 A2995 RMK A01 T03050210  RH  057%=      5-min Rain = 0
KTH1 151859Z 17004KT 31/21 A2995 RMK A01 T03050207  RH  056%=      5-min Rain = 0
KTH1 151900Z 17005KT 31/21 A2995 RMK A01 T03050207  RH  056%=      5-min Rain = 0
KTH1 151901Z 18007KT 30/21 A2995 RMK A01 T03040212  RH  058%=      5-min Rain = 0
KTH1 151902Z 18007KT 30/21 A2995 RMK A01 T03040211  RH  057%=      5-min Rain = 0
KTH1 151903Z 15005KT 31/22 A2995 RMK A01 T03050215  RH  059%=      5-min Rain = 0
KTH1 151904Z 14005KT 31/22 A2995 RMK A01 T03070216  RH  058%=      5-min Rain = 0
KTH1 151905Z 13006KT 31/21 A2995 RMK A01 T03090213  RH  056%=      5-min Rain = 0
KTH1 151906Z 12007KT 31/21 A2995 RMK A01 T03100214  RH  057%=      5-min Rain = 0
KTH1 151907Z 12006KT 31/21 A2995 RMK A01 T03100210  RH  055%=      5-min Rain = 0
KTH1 151908Z 14007KT 31/21 A2995 RMK A01 T03090213  RH  057%=      5-min Rain = 0
KTH1 151909Z 13006KT 31/21 A2995 RMK A01 T03090212  RH  056%=      5-min Rain = 0
KTH1 151910Z 16006KT 31/21 A2995 RMK A01 T03100211  RH  056%=      5-min Rain = 0
KTH1 151911Z 16002KT 31/21 A2995 RMK A01 T03100207  RH  054%=      5-min Rain = 0
KTH1 151912Z 16005KT 31/21 A2995 RMK A01 T03090209  RH  055%=      5-min Rain = 0
KTH1 151913Z 17007KT 31/21 A2995 RMK A01 T03090208  RH  055%=      5-min Rain = 0
KTH1 151914Z 18006KT 31/22 A2995 RMK A01 T03090215  RH  057%=      5-min Rain = 0
KTH1 151915Z 18005KT 31/21 A2995 RMK A01 T03100211  RH  056%=      5-min Rain = 0
KTH1 151916Z 18006KT 31/21 A2994 RMK A01 T03100214  RH  057%=      5-min Rain = 0
KTH1 151917Z 17006KT 31/21 A2994 RMK A01 T03130210  RH  055%=      5-min Rain = 0
KTH1 151918Z 18006KT 31/21 A2994 RMK A01 T03130210  RH  055%=      5-min Rain = 0
KTH1 151919Z 16006KT 31/21 A2994 RMK A01 T03130211  RH  055%=      5-min Rain = 0
KTH1 151920Z 14006KT 31/21 A2994 RMK A01 T03130213  RH  056%=      5-min Rain = 0
KTH1 151921Z 15005KT 31/21 A2994 RMK A01 T03140208  RH  053%=      5-min Rain = 0
KTH1 151922Z 16004KT 31/21 A2994 RMK A01 T03140209  RH  054%=      5-min Rain = 0
KTH1 151923Z 12004KT 31/21 A2994 RMK A01 T03130210  RH  054%=      5-min Rain = 0
KTH1 151924Z 13005KT 31/21 A2994 RMK A01 T03140209  RH  054%=      5-min Rain = 0
KTH1 151925Z 15007KT 31/21 A2994 RMK A01 T03140210  RH  054%=      5-min Rain = 0
KTH1 151926Z 15006KT 31/20 A2994 RMK A01 T03140204  RH  052%=      5-min Rain = 0
KTH1 151927Z 12007KT 31/21 A2994 RMK A01 T03130208  RH  054%=      5-min Rain = 0
KTH1 151928Z 09006KT 31/20 A2994 RMK A01 T03110200  RH  052%=      5-min Rain = 0
KTH1 151929Z 10007KT 31/20 A2994 RMK A01 T03090203  RH  053%=      5-min Rain = 0
KTH1 151930Z 10004KT 31/20 A2994 RMK A01 T03090202  RH  053%=      5-min Rain = 0
KTH1 151931Z 13007KT 31/21 A2994 RMK A01 T03090205  RH  054%=      5-min Rain = 0
KTH1 151932Z 13007KT 31/21 A2994 RMK A01 T03110205  RH  053%=      5-min Rain = 0
KTH1 151933Z 13006KT 31/20 A2994 RMK A01 T03130201  RH  051%=      5-min Rain = 0
KTH1 151934Z 12005KT 31/20 A2994 RMK A01 T03120201  RH  052%=      5-min Rain = 0
KTH1 151935Z 11007KT 31/20 A2994 RMK A01 T03120204  RH  053%=      5-min Rain = 0
KTH1 151936Z 15006KT 31/21 A2994 RMK A01 T03120207  RH  053%=      5-min Rain = 0
KTH1 151937Z 14006KT 31/21 A2994 RMK A01 T03120205  RH  053%=      5-min Rain = 0
KTH1 151938Z 14006KT 31/20 A2994 RMK A01 T03130198  RH  050%=      5-min Rain = 0
KTH1 151939Z 14005KT 31/20 A2994 RMK A01 T03130198  RH  050%=      5-min Rain = 0
KTH1 151940Z 15004KT 31/20 A2994 RMK A01 T03130201  RH  051%=      5-min Rain = 0
KTH1 151941Z 12004KT 31/20 A2994 RMK A01 T03140203  RH  051%=      5-min Rain = 0
KTH1 151942Z 13006KT 31/20 A2994 RMK A01 T03140203  RH  052%=      5-min Rain = 0
KTH1 151943Z 14005KT 31/20 A2994 RMK A01 T03130203  RH  052%=      5-min Rain = 0
KTH1 151944Z 11004KT 31/20 A2994 RMK A01 T03120201  RH  052%=      5-min Rain = 0
KTH1 151945Z 12002KT 31/21 A2994 RMK A01 T03100206  RH  054%=      5-min Rain = 0
KTH1 151946Z 12003KT 31/21 A2994 RMK A01 T03100205  RH  054%=      5-min Rain = 0
KTH1 151947Z 12005KT 31/21 A2993 RMK A01 T03120208  RH  054%=      5-min Rain = 0
KTH1 151948Z 11004KT 31/21 A2993 RMK A01 T03120207  RH  053%=      5-min Rain = 0
KTH1 151949Z 10005KT 31/20 A2993 RMK A01 T03110204  RH  053%=      5-min Rain = 0
KTH1 151950Z 12003KT 31/21 A2993 RMK A01 T03090207  RH  055%=      5-min Rain = 0
KTH1 151951Z 10005KT 31/20 A2993 RMK A01 T03080204  RH  054%=      5-min Rain = 0
KTH1 151952Z 10004KT 31/21 A2993 RMK A01 T03090207  RH  054%=      5-min Rain = 0
KTH1 151953Z 11006KT 31/20 A2993 RMK A01 T03120202  RH  052%=      5-min Rain = 0
KTH1 151954Z 09005KT 31/20 A2993 RMK A01 T03130200  RH  051%=      5-min Rain = 0
KTH1 151955Z 11007KT 31/20 A2993 RMK A01 T03130198  RH  050%=      5-min Rain = 0
KTH1 151956Z 11004KT 31/20 A2993 RMK A01 T03140196  RH  049%=      5-min Rain = 0
KTH1 151957Z 12005KT 31/20 A2993 RMK A01 T03140200  RH  051%=      5-min Rain = 0
KTH1 151958Z 10004KT 32/20 A2993 RMK A01 T03160199  RH  050%=      5-min Rain = 0
KTH1 151959Z 08003KT 32/20 A2993 RMK A01 T03170199  RH  050%=      5-min Rain = 0
KTH1 152000Z 09003KT 32/20 A2993 RMK A01 T03180197  RH  049%=      5-min Rain = 0
KTH1 152001Z 06003KT 32/20 A2993 RMK A01 T03170201  RH  050%=      5-min Rain = 0
KTH1 152002Z 07004KT 32/20 A2993 RMK A01 T03170201  RH  050%=      5-min Rain = 0
KTH1 152003Z 06003KT 32/20 A2993 RMK A01 T03170200  RH  050%=      5-min Rain = 0
KTH1 152004Z 07002KT 32/21 A2993 RMK A01 T03160207  RH  052%=      5-min Rain = 0
KTH1 152005Z 09007KT 32/20 A2993 RMK A01 T03180203  RH  051%=      5-min Rain = 0
KTH1 152006Z 10006KT 32/20 A2993 RMK A01 T03180200  RH  050%=      5-min Rain = 0
KTH1 152007Z 10005KT 32/20 A2992 RMK A01 T03170201  RH  050%=      5-min Rain = 0
KTH1 152008Z 11005KT 32/20 A2992 RMK A01 T03170200  RH  050%=      5-min Rain = 0
KTH1 152009Z 11003KT 32/20 A2992 RMK A01 T03160202  RH  051%=      5-min Rain = 0
KTH1 152010Z 18002KT 32/21 A2992 RMK A01 T03170207  RH  052%=      5-min Rain = 0
KTH1 152011Z 16006KT 32/20 A2992 RMK A01 T03200204  RH  051%=      5-min Rain = 0
KTH1 152012Z 10006KT 32/20 A2992 RMK A01 T03220202  RH  049%=      5-min Rain = 0
KTH1 152013Z 12004KT 32/20 A2992 RMK A01 T03220197  RH  048%=      5-min Rain = 0
KTH1 152014Z 11006KT 32/20 A2992 RMK A01 T03210199  RH  049%=      5-min Rain = 0
KTH1 152015Z 11004KT 32/20 A2992 RMK A01 T03200199  RH  049%=      5-min Rain = 0
KTH1 152016Z 15004KT 32/20 A2992 RMK A01 T03200199  RH  049%=      5-min Rain = 0
KTH1 152017Z 13003KT 32/20 A2992 RMK A01 T03200195  RH  048%=      5-min Rain = 0
KTH1 152018Z 11002KT 32/20 A2992 RMK A01 T03200196  RH  048%=      5-min Rain = 0
KTH1 152019Z 09003KT 32/20 A2992 RMK A01 T03190200  RH  049%=      5-min Rain = 0
KTH1 152020Z 13004KT 32/20 A2992 RMK A01 T03200195  RH  048%=      5-min Rain = 0
KTH1 152021Z 08002KT 32/20 A2992 RMK A01 T03200198  RH  049%=      5-min Rain = 0
KTH1 152022Z 06003KT 32/20 A2992 RMK A01 T03190196  RH  048%=      5-min Rain = 0
KTH1 152023Z 11005KT 32/20 A2992 RMK A01 T03180200  RH  050%=      5-min Rain = 0
KTH1 152024Z 14006KT 32/20 A2992 RMK A01 T03180202  RH  050%=      5-min Rain = 0
KTH1 152025Z 14007KT 32/20 A2992 RMK A01 T03200196  RH  048%=      5-min Rain = 0
KTH1 152026Z 14005KT 32/20 A2992 RMK A01 T03200198  RH  049%=      5-min Rain = 0
KTH1 152027Z 17007KT 32/20 A2992 RMK A01 T03200202  RH  050%=      5-min Rain = 0
KTH1 152028Z 19003KT 32/20 A2991 RMK A01 T03200199  RH  049%=      5-min Rain = 0
KTH1 152029Z 21005KT 32/20 A2991 RMK A01 T03200202  RH  050%=      5-min Rain = 0
KTH1 152030Z 21003KT 32/20 A2991 RMK A01 T03210199  RH  049%=      5-min Rain = 0
KTH1 152031Z 18002KT 32/20 A2991 RMK A01 T03210204  RH  050%=      5-min Rain = 0
KTH1 152032Z 12003KT 32/20 A2991 RMK A01 T03220200  RH  048%=      5-min Rain = 0
KTH1 152033Z 09005KT 32/20 A2991 RMK A01 T03230199  RH  048%=      5-min Rain = 0
KTH1 152034Z 09006KT 32/20 A2991 RMK A01 T03220199  RH  048%=      5-min Rain = 0
KTH1 152035Z 08004KT 32/19 A2991 RMK A01 T03210192  RH  046%=      5-min Rain = 0
KTH1 152036Z 05003KT 32/19 A2991 RMK A01 T03190191  RH  047%=      5-min Rain = 0
KTH1 152037Z 05003KT 32/20 A2991 RMK A01 T03170198  RH  049%=      5-min Rain = 0
KTH1 152038Z 07005KT 32/19 A2991 RMK A01 T03170194  RH  048%=      5-min Rain = 0
KTH1 152039Z 15002KT 32/20 A2991 RMK A01 T03170195  RH  048%=      5-min Rain = 0
KTH1 152040Z 14001KT 32/20 A2991 RMK A01 T03170195  RH  048%=      5-min Rain = 0
KTH1 152041Z 07006KT 32/20 A2991 RMK A01 T03190203  RH  050%=      5-min Rain = 0
KTH1 152042Z 08006KT 32/20 A2991 RMK A01 T03220198  RH  048%=      5-min Rain = 0
KTH1 152043Z 09006KT 32/20 A2991 RMK A01 T03230199  RH  048%=      5-min Rain = 0
KTH1 152044Z 11005KT 32/20 A2991 RMK A01 T03240196  RH  047%=      5-min Rain = 0
KTH1 152045Z 12006KT 32/20 A2991 RMK A01 T03240196  RH  047%=      5-min Rain = 0
KTH1 152046Z 12006KT 32/20 A299 RMK A01 T03230200  RH  048%=      5-min Rain = 0
KTH1 152047Z 14005KT 32/20 A299 RMK A01 T03230199  RH  048%=      5-min Rain = 0
KTH1 152048Z 13005KT 32/20 A299 RMK A01 T03240196  RH  047%=      5-min Rain = 0
KTH1 152049Z 14003KT 32/19 A299 RMK A01 T03240194  RH  046%=      5-min Rain = 0
KTH1 152050Z 13002KT 32/19 A299 RMK A01 T03240192  RH  046%=      5-min Rain = 0
KTH1 152051Z 08000KT 32/20 A299 RMK A01 T03230196  RH  047%=      5-min Rain = 0
KTH1 152052Z 01001KT 32/19 A299 RMK A01 T03220188  RH  045%=      5-min Rain = 0
KTH1 152053Z 36001KT 32/19 A299 RMK A01 T03210193  RH  047%=      5-min Rain = 0
KTH1 152054Z 27001KT 32/19 A299 RMK A01 T03210193  RH  047%=      5-min Rain = 0
KTH1 152055Z 25002KT 32/20 A299 RMK A01 T03210198  RH  048%=      5-min Rain = 0
KTH1 152056Z 14004KT 32/20 A299 RMK A01 T03240200  RH  048%=      5-min Rain = 0
KTH1 152057Z 14004KT 33/20 A299 RMK A01 T03260202  RH  048%=      5-min Rain = 0
KTH1 152058Z 11006KT 33/20 A299 RMK A01 T03280199  RH  046%=      5-min Rain = 0
KTH1 152059Z 11006KT 33/20 A299 RMK A01 T03280198  RH  046%=      5-min Rain = 0
KTH1 152100Z 12006KT 33/20 A299 RMK A01 T03280195  RH  046%=      5-min Rain = 0
KTH1 152101Z 12004KT 33/20 A299 RMK A01 T03260199  RH  047%=      5-min Rain = 0
KTH1 152102Z 13003KT 33/20 A2989 RMK A01 T03260198  RH  047%=      5-min Rain = 0
KTH1 152103Z 14003KT 33/20 A2989 RMK A01 T03260199  RH  047%=      5-min Rain = 0
KTH1 152104Z 14004KT 33/20 A2989 RMK A01 T03270199  RH  047%=      5-min Rain = 0
KTH1 152105Z 17004KT 33/20 A2989 RMK A01 T03270199  RH  047%=      5-min Rain = 0
KTH1 152106Z 17002KT 33/20 A2989 RMK A01 T03280199  RH  047%=      5-min Rain = 0
KTH1 152107Z 07001KT 33/19 A2989 RMK A01 T03280194  RH  045%=      5-min Rain = 0
KTH1 152108Z 05001KT 33/20 A2989 RMK A01 T03280197  RH  046%=      5-min Rain = 0
KTH1 152109Z 03003KT 33/20 A2989 RMK A01 T03280195  RH  046%=      5-min Rain = 0
KTH1 152110Z 02002KT 33/19 A2989 RMK A01 T03260192  RH  045%=      5-min Rain = 0
KTH1 152111Z 06002KT 32/20 A2989 RMK A01 T03240198  RH  047%=      5-min Rain = 0
KTH1 152112Z 05003KT 32/20 A2989 RMK A01 T03240197  RH  047%=      5-min Rain = 0
KTH1 152113Z 06003KT 33/20 A2989 RMK A01 T03250203  RH  049%=      5-min Rain = 0
KTH1 152114Z 06005KT 33/20 A2989 RMK A01 T03270200  RH  047%=      5-min Rain = 0
KTH1 152115Z 12008KT 33/20 A2988 RMK A01 T03270198  RH  047%=      5-min Rain = 0
KTH1 152116Z 13006KT 33/20 A2989 RMK A01 T03270202  RH  048%=      5-min Rain = 0
KTH1 152117Z 12006KT 33/20 A2989 RMK A01 T03290198  RH  046%=      5-min Rain = 0
KTH1 152118Z 12007KT 33/20 A2988 RMK A01 T03290198  RH  046%=      5-min Rain = 0
KTH1 152119Z 12006KT 33/20 A2988 RMK A01 T03280197  RH  046%=      5-min Rain = 0
KTH1 152120Z 12005KT 33/20 A2988 RMK A01 T03270198  RH  047%=      5-min Rain = 0
KTH1 152121Z 12006KT 33/20 A2988 RMK A01 T03270195  RH  046%=      5-min Rain = 0
KTH1 152122Z 14006KT 33/20 A2988 RMK A01 T03260195  RH  046%=      5-min Rain = 0
KTH1 152123Z 12006KT 33/20 A2988 RMK A01 T03260196  RH  046%=      5-min Rain = 0
KTH1 152124Z 09002KT 33/19 A2988 RMK A01 T03260194  RH  046%=      5-min Rain = 0
KTH1 152125Z 09001KT 33/19 A2988 RMK A01 T03260193  RH  045%=      5-min Rain = 0
KTH1 152126Z 12004KT 33/19 A2988 RMK A01 T03250192  RH  046%=      5-min Rain = 0
KTH1 152127Z 12006KT 33/20 A2988 RMK A01 T03250197  RH  047%=      5-min Rain = 0
KTH1 152128Z 11006KT 33/20 A2988 RMK A01 T03260195  RH  046%=      5-min Rain = 0
KTH1 152129Z 10006KT 33/20 A2988 RMK A01 T03260195  RH  046%=      5-min Rain = 0
KTH1 152130Z 11004KT 33/20 A2988 RMK A01 T03270198  RH  047%=      5-min Rain = 0
KTH1 152131Z 10003KT 33/20 A2988 RMK A01 T03280198  RH  046%=      5-min Rain = 0
KTH1 152132Z 06002KT 33/19 A2988 RMK A01 T03280192  RH  045%=      5-min Rain = 0
KTH1 152133Z 10001KT 33/20 A2988 RMK A01 T03260201  RH  048%=      5-min Rain = 0
KTH1 152134Z 17004KT 33/20 A2988 RMK A01 T03270197  RH  046%=      5-min Rain = 0
KTH1 152135Z 14005KT 33/20 A2988 RMK A01 T03280196  RH  046%=      5-min Rain = 0
KTH1 152136Z 13004KT 33/20 A2988 RMK A01 T03280196  RH  046%=      5-min Rain = 0
KTH1 152137Z 15004KT 33/20 A2988 RMK A01 T03270198  RH  047%=      5-min Rain = 0
KTH1 152138Z 17004KT 33/19 A2988 RMK A01 T03270193  RH  045%=      5-min Rain = 0
KTH1 152139Z 15002KT 33/19 A2988 RMK A01 T03260188  RH  044%=      5-min Rain = 0
KTH1 152140Z 15002KT 33/19 A2987 RMK A01 T03260190  RH  045%=      5-min Rain = 0
KTH1 152141Z 15002KT 33/19 A2987 RMK A01 T03260193  RH  045%=      5-min Rain = 0
KTH1 152142Z 11002KT 33/20 A2987 RMK A01 T03270195  RH  046%=      5-min Rain = 0
KTH1 152143Z 09003KT 33/19 A2987 RMK A01 T03280191  RH  044%=      5-min Rain = 0
KTH1 152144Z 08003KT 33/19 A2987 RMK A01 T03280194  RH  045%=      5-min Rain = 0
KTH1 152145Z 12002KT 33/19 A2987 RMK A01 T03280194  RH  045%=      5-min Rain = 0
KTH1 152146Z 17003KT 33/20 A2987 RMK A01 T03280196  RH  046%=      5-min Rain = 0
KTH1 152147Z 17002KT 33/20 A2987 RMK A01 T03300195  RH  045%=      5-min Rain = 0
KTH1 152148Z 15002KT 33/20 A2987 RMK A01 T03310195  RH  045%=      5-min Rain = 0
KTH1 152149Z 06002KT 33/20 A2987 RMK A01 T03310203  RH  047%=      5-min Rain = 0
KTH1 152150Z 08003KT 33/20 A2987 RMK A01 T03320195  RH  045%=      5-min Rain = 0
KTH1 152151Z 07002KT 33/20 A2987 RMK A01 T03320199  RH  046%=      5-min Rain = 0
KTH1 152152Z 08004KT 33/20 A2987 RMK A01 T03320195  RH  045%=      5-min Rain = 0
KTH1 152153Z 09001KT 33/19 A2987 RMK A01 T03310191  RH  044%=      5-min Rain = 0
KTH1 152154Z 07001KT 33/19 A2987 RMK A01 T03300193  RH  044%=      5-min Rain = 0
KTH1 152155Z 04005KT 33/20 A2987 RMK A01 T03300195  RH  045%=      5-min Rain = 0
KTH1 152156Z 06003KT 33/20 A2987 RMK A01 T03290198  RH  046%=      5-min Rain = 0
KTH1 152157Z 09004KT 33/20 A2987 RMK A01 T03290197  RH  046%=      5-min Rain = 0
KTH1 152158Z 09005KT 33/20 A2987 RMK A01 T03290195  RH  045%=      5-min Rain = 0
KTH1 152159Z 11003KT 33/19 A2986 RMK A01 T03290194  RH  045%=      5-min Rain = 0
KTH1 152200Z 12004KT 33/20 A2986 RMK A01 T03290198  RH  046%=      5-min Rain = 0
KTH1 152201Z 13005KT 33/20 A2986 RMK A01 T03310203  RH  047%=      5-min Rain = 0
KTH1 152202Z 12003KT 33/20 A2986 RMK A01 T03320200  RH  046%=      5-min Rain = 0
KTH1 152203Z 10005KT 33/20 A2986 RMK A01 T03330199  RH  046%=      5-min Rain = 0
KTH1 152204Z 12005KT 33/20 A2986 RMK A01 T03330200  RH  046%=      5-min Rain = 0
KTH1 152205Z 12009KT 33/20 A2986 RMK A01 T03330199  RH  045%=      5-min Rain = 0
KTH1 152206Z 13008KT 33/20 A2986 RMK A01 T03330198  RH  045%=      5-min Rain = 0
KTH1 152207Z 13008KT 33/20 A2986 RMK A01 T03320199  RH  045%=      5-min Rain = 0
KTH1 152208Z 12007KT 33/20 A2986 RMK A01 T03320202  RH  046%=      5-min Rain = 0
KTH1 152209Z 11006KT 33/20 A2986 RMK A01 T03320197  RH  045%=      5-min Rain = 0
KTH1 152210Z 09006KT 33/20 A2986 RMK A01 T03330201  RH  046%=      5-min Rain = 0
KTH1 152211Z 08006KT 33/20 A2986 RMK A01 T03320203  RH  047%=      5-min Rain = 0
KTH1 152212Z 09009KT 33/20 A2986 RMK A01 T03310200  RH  046%=      5-min Rain = 0
KTH1 152213Z 08007KT 33/21 A2986 RMK A01 T03320205  RH  047%=      5-min Rain = 0
KTH1 152214Z 08004KT 33/20 A2986 RMK A01 T03310201  RH  046%=      5-min Rain = 0
KTH1 152215Z 08004KT 33/20 A2986 RMK A01 T03320201  RH  046%=      5-min Rain = 0
KTH1 152216Z 08003KT 33/20 A2986 RMK A01 T03320201  RH  046%=      5-min Rain = 0
KTH1 152217Z 09002KT 33/20 A2986 RMK A01 T03320198  RH  045%=      5-min Rain = 0
KTH1 152218Z 07004G9KT 33/20 A2986 RMK A01 T03320204  RH  047%=      5-min Rain = 0
KTH1 152219Z 08009KT 33/20 A2986 RMK A01 T03330201  RH  046%=      5-min Rain = 0
KTH1 152220Z 10008KT 33/20 A2986 RMK A01 T03330197  RH  045%=      5-min Rain = 0
KTH1 152221Z 11007KT 33/20 A2986 RMK A01 T03320201  RH  046%=      5-min Rain = 0
KTH1 152222Z 10007KT 33/20 A2986 RMK A01 T03320204  RH  047%=      5-min Rain = 0
KTH1 152223Z 09009KT 33/20 A2986 RMK A01 T03330199  RH  045%=      5-min Rain = 0
KTH1 152224Z 11006KT 33/20 A2986 RMK A01 T03320199  RH  045%=      5-min Rain = 0
KTH1 152225Z 08005KT 33/20 A2986 RMK A01 T03320203  RH  047%=      5-min Rain = 0
KTH1 152226Z 09005KT 33/21 A2987 RMK A01 T03340205  RH  047%=      5-min Rain = 0
KTH1 152227Z 09002KT 34/21 A2987 RMK A01 T03350206  RH  047%=      5-min Rain = 0
KTH1 152228Z 12006KT 34/20 A2987 RMK A01 T03350203  RH  046%=      5-min Rain = 0
KTH1 152229Z 11007KT 34/20 A2987 RMK A01 T03350203  RH  046%=      5-min Rain = 0
KTH1 152230Z 10006KT 33/20 A2987 RMK A01 T03320203  RH  047%=      5-min Rain = 0
KTH1 152231Z 11007KT 33/20 A2987 RMK A01 T03290201  RH  047%=      5-min Rain = 0
KTH1 152232Z 11007KT 33/20 A2987 RMK A01 T03270200  RH  047%=      5-min Rain = 0
KTH1 152233Z 10009KT 32/20 A2987 RMK A01 T03240198  RH  047%=      5-min Rain = 0
KTH1 152234Z 10005KT 32/20 A2987 RMK A01 T03230197  RH  047%=      5-min Rain = 0
KTH1 152235Z 10006KT 32/20 A2987 RMK A01 T03220198  RH  048%=      5-min Rain = 0
KTH1 152236Z 09007KT 32/20 A2987 RMK A01 T03210198  RH  048%=      5-min Rain = 0
KTH1 152237Z 08005KT 32/20 A2987 RMK A01 T03210203  RH  050%=      5-min Rain = 0
KTH1 152238Z 10006KT 32/20 A2987 RMK A01 T03210202  RH  049%=      5-min Rain = 0
KTH1 152239Z 11008KT 32/20 A2987 RMK A01 T03230201  RH  049%=      5-min Rain = 0
KTH1 152240Z 10011KT 32/20 A2987 RMK A01 T03240201  RH  048%=      5-min Rain = 0
KTH1 152241Z 10011KT 33/20 A2987 RMK A01 T03250202  RH  049%=      5-min Rain = 0
KTH1 152242Z 11016G21KT 32/21 A2987 RMK A01 T03230205  RH  050%=      5-min Rain = 0
KTH1 152243Z 12014KT 32/20 A2987 RMK A01 T03160204  RH  052%=      5-min Rain = 0
KTH1 152244Z 12019G27KT 31/20 A2987 RMK A01 T03080204  RH  054%=      5-min Rain = 0
KTH1 152245Z 13019G24KT 30/20 A2988 RMK A01 T03010202  RH  055%=      5-min Rain = 0
KTH1 152246Z 12017KT 30/20 A2988 RMK A01 T02960201  RH  057%=      5-min Rain = 0
KTH1 152247Z 12017G23KT 29/20 A2988 RMK A01 T02930201  RH  058%=      5-min Rain = 0
KTH1 152248Z 12015KT 29/20 A2988 RMK A01 T02910201  RH  058%=      5-min Rain = 0
KTH1 152249Z 12017G23KT 29/20 A2988 RMK A01 T02890199  RH  058%=      5-min Rain = 0
KTH1 152250Z 12013G22KT 29/20 A2988 RMK A01 T02880199  RH  059%=      5-min Rain = 0
KTH1 152251Z 12014G20KT 29/20 A2988 RMK A01 T02870199  RH  059%=      5-min Rain = 0
KTH1 152252Z 12014G21KT 29/20 A2989 RMK A01 T02860198  RH  059%=      5-min Rain = 0
KTH1 152253Z 12015G23KT 29/20 A2989 RMK A01 T02860196  RH  058%=      5-min Rain = 0
KTH1 152254Z 13015G20KT 29/20 A2989 RMK A01 T02860195  RH  058%=      5-min Rain = 0
KTH1 152255Z 12012G17KT 29/20 A2989 RMK A01 T02860195  RH  058%=      5-min Rain = 0
KTH1 152256Z 13017G23KT 29/19 A2989 RMK A01 T02860193  RH  057%=      5-min Rain = 0
KTH1 152257Z 12017KT 29/19 A2989 RMK A01 T02850191  RH  057%=      5-min Rain = 0
KTH1 152258Z 12015G22KT 29/19 A2989 RMK A01 T02850191  RH  057%=      5-min Rain = 0
KTH1 152259Z 12014G19KT 29/19 A2989 RMK A01 T02850190  RH  057%=      5-min Rain = 0
KTH1 152300Z 13012KT 29/19 A2989 RMK A01 T02850191  RH  057%=      5-min Rain = 0
KTH1 152301Z 12012G17KT 28/19 A2989 RMK A01 T02840191  RH  057%=      5-min Rain = 0
KTH1 152302Z 13011KT 28/19 A2989 RMK A01 T02840192  RH  057%=      5-min Rain = 0
KTH1 152303Z 13012KT 28/19 A2989 RMK A01 T02840192  RH  057%=      5-min Rain = 0
KTH1 152304Z 13012KT 28/19 A2989 RMK A01 T02840192  RH  057%=      5-min Rain = 0
KTH1 152305Z 13011KT 28/19 A2989 RMK A01 T02840192  RH  057%=      5-min Rain = 0
KTH1 152306Z 13009KT 28/19 A2989 RMK A01 T02840192  RH  058%=      5-min Rain = 0
KTH1 152307Z 13011KT 28/19 A2989 RMK A01 T02840192  RH  058%=      5-min Rain = 0
KTH1 152308Z 14008G13KT 28/19 A2989 RMK A01 T02840193  RH  058%=      5-min Rain = 0
KTH1 152309Z 13011KT 28/19 A2989 RMK A01 T02840193  RH  058%=      5-min Rain = 0
KTH1 152310Z 13011G16KT 28/19 A2989 RMK A01 T02840192  RH  058%=      5-min Rain = 0
KTH1 152311Z 13011KT 28/19 A2989 RMK A01 T02840193  RH  058%=      5-min Rain = 0
KTH1 152312Z 13010G16KT 28/19 A2989 RMK A01 T02830194  RH  058%=      5-min Rain = 0
KTH1 152313Z 14010G15KT 28/19 A2989 RMK A01 T02830194  RH  058%=      5-min Rain = 0
KTH1 152314Z 14012KT 28/19 A2989 RMK A01 T02830194  RH  058%=      5-min Rain = 0
KTH1 152315Z 14011KT 28/19 A2989 RMK A01 T02830193  RH  058%=      5-min Rain = 0
KTH1 152316Z 13013KT 28/19 A2989 RMK A01 T02830192  RH  058%=      5-min Rain = 0
KTH1 152317Z 13011G19KT 28/19 A2989 RMK A01 T02820190  RH  057%=      5-min Rain = 0
KTH1 152318Z 13014KT 28/19 A2989 RMK A01 T02820188  RH  057%=      5-min Rain = 0
KTH1 152319Z 13014G19KT 28/19 A2989 RMK A01 T02810187  RH  056%=      5-min Rain = 0
KTH1 152320Z 13014KT 28/19 A2989 RMK A01 T02800185  RH  056%=      5-min Rain = 0
KTH1 152321Z 13009G14KT 28/19 A2989 RMK A01 T02800185  RH  056%=      5-min Rain = 0
KTH1 152322Z 12011G16KT 28/19 A2989 RMK A01 T02800186  RH  057%=      5-min Rain = 0
KTH1 152323Z 13016G21KT 28/18 A2989 RMK A01 T02790182  RH  056%=      5-min Rain = 0
KTH1 152324Z 13014KT 28/18 A2989 RMK A01 T02780179  RH  055%=      5-min Rain = 0
KTH1 152325Z 13011G17KT 28/18 A2989 RMK A01 T02770177  RH  055%=      5-min Rain = 0
KTH1 152326Z 14014KT 28/18 A2989 RMK A01 T02760177  RH  055%=      5-min Rain = 0
KTH1 152327Z 13013KT 28/18 A2989 RMK A01 T02750175  RH  055%=      5-min Rain = 0
KTH1 152328Z 12015KT 27/18 A2989 RMK A01 T02740175  RH  055%=      5-min Rain = 0
KTH1 152329Z 13014G19KT 27/17 A2989 RMK A01 T02730174  RH  055%=      5-min Rain = 0
KTH1 152330Z 14011G16KT 27/18 A2989 RMK A01 T02730175  RH  055%=      5-min Rain = 0
KTH1 152331Z 13013G18KT 27/17 A2989 RMK A01 T02720174  RH  055%=      5-min Rain = 0
KTH1 152332Z 12011KT 27/18 A2989 RMK A01 T02720175  RH  055%=      5-min Rain = 0
KTH1 152333Z 12013KT 27/18 A2989 RMK A01 T02710175  RH  056%=      5-min Rain = 0
KTH1 152334Z 13013KT 27/18 A2989 RMK A01 T02710176  RH  056%=      5-min Rain = 0
KTH1 152335Z 13010G15KT 27/18 A2989 RMK A01 T02710176  RH  056%=      5-min Rain = 0
KTH1 152336Z 13011KT 27/18 A2989 RMK A01 T02710176  RH  056%=      5-min Rain = 0
KTH1 152337Z 12008KT 27/18 A2989 RMK A01 T02700177  RH  056%=      5-min Rain = 0
KTH1 152338Z 12010KT 27/18 A2989 RMK A01 T02700177  RH  057%=      5-min Rain = 0
KTH1 152339Z 12011KT 27/18 A2989 RMK A01 T02700177  RH  057%=      5-min Rain = 0
KTH1 152340Z 12012KT 27/18 A2989 RMK A01 T02700176  RH  056%=      5-min Rain = 0
KTH1 152341Z 12013KT 27/18 A2989 RMK A01 T02690177  RH  057%=      5-min Rain = 0
KTH1 152342Z 13010KT 27/18 A2989 RMK A01 T02690176  RH  057%=      5-min Rain = 0
KTH1 152343Z 12011G17KT 27/18 A2989 RMK A01 T02690178  RH  057%=      5-min Rain = 0
KTH1 152344Z 13011KT 27/18 A2989 RMK A01 T02690178  RH  058%=      5-min Rain = 0
KTH1 152345Z 13012KT 27/18 A2989 RMK A01 T02690179  RH  058%=      5-min Rain = 0
KTH1 152346Z 14012G17KT 27/18 A2989 RMK A01 T02680179  RH  058%=      5-min Rain = 0
KTH1 152347Z 12010KT 27/18 A2989 RMK A01 T02680180  RH  058%=      5-min Rain = 0
KTH1 152348Z 13008KT 27/18 A2989 RMK A01 T02680181  RH  059%=      5-min Rain = 0
KTH1 152349Z 13011G16KT 27/18 A2989 RMK A01 T02680182  RH  059%=      5-min Rain = 0
KTH1 152350Z 13012KT 27/18 A2989 RMK A01 T02670182  RH  059%=      5-min Rain = 0
KTH1 152351Z 13010KT 27/18 A2989 RMK A01 T02670182  RH  059%=      5-min Rain = 0
KTH1 152352Z 12010KT 27/18 A2989 RMK A01 T02670182  RH  060%=      5-min Rain = 0
KTH1 152353Z 13008KT 27/18 A2989 RMK A01 T02660183  RH  060%=      5-min Rain = 0
KTH1 152354Z 14008KT 27/18 A2989 RMK A01 T02660184  RH  061%=      5-min Rain = 0
KTH1 152355Z 12009KT 27/19 A2989 RMK A01 T02660185  RH  061%=      5-min Rain = 0
KTH1 152356Z 12009KT 27/19 A2989 RMK A01 T02660185  RH  061%=      5-min Rain = 0
KTH1 152357Z 13007KT 27/19 A2989 RMK A01 T02650186  RH  062%=      5-min Rain = 0
KTH1 152358Z 13008KT 27/19 A2989 RMK A01 T02650187  RH  062%=      5-min Rain = 0
KTH1 152359Z 13008KT 26/19 A2989 RMK A01 T02640187  RH  062%=      5-min Rain = 0
KTH1 160000Z 13008KT 26/19 A2988 RMK A01 T02640187  RH  063%=      5-min Rain = 0
KTH1 160001Z 14006KT 26/19 A2988 RMK A01 T02640188  RH  063%=      5-min Rain = 0
KTH1 160002Z 14008KT 26/19 A2988 RMK A01 T02640188  RH  063%=      5-min Rain = 0
KTH1 160003Z 15008KT 26/19 A2988 RMK A01 T02640188  RH  063%=      5-min Rain = 0
KTH1 160004Z 14008KT 26/19 A2988 RMK A01 T02640188  RH  063%=      5-min Rain = 0
KTH1 160005Z 14007KT 26/19 A2988 RMK A01 T02640189  RH  063%=      5-min Rain = 0
KTH1 160006Z 14007KT 26/19 A2988 RMK A01 T02640190  RH  064%=      5-min Rain = 0
KTH1 160007Z 14010KT 26/19 A2987 RMK A01 T02640190  RH  064%=      5-min Rain = 0
KTH1 160008Z 14010KT 26/19 A2987 RMK A01 T02630188  RH  063%=      5-min Rain = 0
KTH1 160009Z 14008KT 26/19 A2987 RMK A01 T02630188  RH  063%=      5-min Rain = 0
KTH1 160010Z 13008KT 26/19 A2987 RMK A01 T02630188  RH  063%=      5-min Rain = 0
KTH1 160011Z 13007KT 26/19 A2987 RMK A01 T02630189  RH  064%=      5-min Rain = 0
KTH1 160012Z 13007KT 26/19 A2987 RMK A01 T02630189  RH  064%=      5-min Rain = 0
KTH1 160013Z 12008KT 26/19 A2987 RMK A01 T02630190  RH  064%=      5-min Rain = 0
KTH1 160014Z 13007KT 26/19 A2987 RMK A01 T02630190  RH  064%=      5-min Rain = 0
KTH1 160015Z 12008KT 26/19 A2987 RMK A01 T02630190  RH  064%=      5-min Rain = 0
KTH1 160016Z 13007KT 26/19 A2987 RMK A01 T02630191  RH  065%=      5-min Rain = 0
KTH1 160017Z 12006KT 26/19 A2987 RMK A01 T02620191  RH  065%=      5-min Rain = 0
KTH1 160018Z 12007KT 26/19 A2987 RMK A01 T02620191  RH  065%=      5-min Rain = 0
KTH1 160019Z 13006KT 26/19 A2986 RMK A01 T02620192  RH  065%=      5-min Rain = 0
KTH1 160020Z 13007KT 26/19 A2986 RMK A01 T02620192  RH  066%=      5-min Rain = 0
KTH1 160021Z 13005KT 26/19 A2987 RMK A01 T02610192  RH  066%=      5-min Rain = 0
KTH1 160022Z 13005KT 26/19 A2987 RMK A01 T02610192  RH  066%=      5-min Rain = 0
KTH1 160023Z 13004KT 26/19 A2987 RMK A01 T02610193  RH  066%=      5-min Rain = 0
KTH1 160024Z 13005KT 26/19 A2987 RMK A01 T02610193  RH  066%=      5-min Rain = 0
KTH1 160025Z 14006KT 26/19 A2987 RMK A01 T02610193  RH  066%=      5-min Rain = 0
KTH1 160026Z 12005G10KT 26/19 A2987 RMK A01 T02610193  RH  066%=      5-min Rain = 0
KTH1 160027Z 13007KT 26/19 A2987 RMK A01 T02600193  RH  066%=      5-min Rain = 0
KTH1 160028Z 13007KT 26/19 A2987 RMK A01 T02600193  RH  067%=      5-min Rain = 0
KTH1 160029Z 14008KT 26/19 A2987 RMK A01 T02600193  RH  066%=      5-min Rain = 0
KTH1 160030Z 14007KT 26/19 A2987 RMK A01 T02600192  RH  066%=      5-min Rain = 0
KTH1 160031Z 13008KT 26/19 A2987 RMK A01 T02600192  RH  066%=      5-min Rain = 0
KTH1 160032Z 14008KT 26/19 A2987 RMK A01 T02600192  RH  066%=      5-min Rain = 0
KTH1 160033Z 13007KT 26/19 A2987 RMK A01 T02600191  RH  066%=      5-min Rain = 0
KTH1 160034Z 13007KT 26/19 A2987 RMK A01 T02600192  RH  066%=      5-min Rain = 0
KTH1 160035Z 13008KT 26/19 A2987 RMK A01 T02600192  RH  066%=      5-min Rain = 0
KTH1 160036Z 12008KT 26/19 A2987 RMK A01 T02600191  RH  066%=      5-min Rain = 0
KTH1 160037Z 12008KT 26/19 A2987 RMK A01 T02600191  RH  066%=      5-min Rain = 0
KTH1 160038Z 13006KT 26/19 A2988 RMK A01 T02600191  RH  066%=      5-min Rain = 0
KTH1 160039Z 13007KT 26/19 A2988 RMK A01 T02610191  RH  066%=      5-min Rain = 0
KTH1 160040Z 13008KT 26/19 A2988 RMK A01 T02610191  RH  066%=      5-min Rain = 0
KTH1 160041Z 13007KT 26/19 A2988 RMK A01 T02600191  RH  065%=      5-min Rain = 0
KTH1 160042Z 14006KT 26/19 A2988 RMK A01 T02610191  RH  066%=      5-min Rain = 0
KTH1 160043Z 14006KT 26/19 A2988 RMK A01 T02610191  RH  065%=      5-min Rain = 0
KTH1 160044Z 14007KT 26/19 A2988 RMK A01 T02610191  RH  066%=      5-min Rain = 0
KTH1 160045Z 14008KT 26/19 A2988 RMK A01 T02610191  RH  065%=      5-min Rain = 0
KTH1 160046Z 14005KT 26/19 A2988 RMK A01 T02600190  RH  065%=      5-min Rain = 0
KTH1 160047Z 14006KT 26/19 A2988 RMK A01 T02610191  RH  065%=      5-min Rain = 0
KTH1 160048Z 15006KT 26/19 A2988 RMK A01 T02610191  RH  066%=      5-min Rain = 0
KTH1 160049Z 15007KT 26/19 A2988 RMK A01 T02600191  RH  066%=      5-min Rain = 0
KTH1 160050Z 15007KT 26/19 A2988 RMK A01 T02600190  RH  065%=      5-min Rain = 0
KTH1 160051Z 15007KT 26/19 A2988 RMK A01 T02600191  RH  066%=      5-min Rain = 0
KTH1 160052Z 15007KT 26/19 A2989 RMK A01 T02600191  RH  065%=      5-min Rain = 0
KTH1 160053Z 15007KT 26/19 A2989 RMK A01 T02600191  RH  066%=      5-min Rain = 0
KTH1 160054Z 15006KT 26/19 A2989 RMK A01 T02600191  RH  066%=      5-min Rain = 0
KTH1 160055Z 16006KT 26/19 A2989 RMK A01 T02590191  RH  066%=      5-min Rain = 0
KTH1 160056Z 15005KT 26/19 A2989 RMK A01 T02590191  RH  066%=      5-min Rain = 0
KTH1 160057Z 15007KT 26/19 A2989 RMK A01 T02590191  RH  066%=      5-min Rain = 0
KTH1 160058Z 15006KT 26/19 A2989 RMK A01 T02590191  RH  066%=      5-min Rain = 0
KTH1 160059Z 16005KT 26/19 A2989 RMK A01 T02580192  RH  067%=      5-min Rain = 0
KTH1 160100Z 15005KT 26/19 A2989 RMK A01 T02580191  RH  067%=      5-min Rain = 0
KTH1 160101Z 15006KT 26/19 A2989 RMK A01 T02580191  RH  067%=      5-min Rain = 0
KTH1 160102Z 15006KT 26/19 A2989 RMK A01 T02570190  RH  066%=      5-min Rain = 0
KTH1 160103Z 15004KT 26/19 A2989 RMK A01 T02570190  RH  067%=      5-min Rain = 0
KTH1 160104Z 14004KT 26/19 A2989 RMK A01 T02570190  RH  067%=      5-min Rain = 0
KTH1 160105Z 14006KT 26/19 A2988 RMK A01 T02570190  RH  067%=      5-min Rain = 0
KTH1 160106Z 14005KT 26/19 A2988 RMK A01 T02570189  RH  066%=      5-min Rain = 0
KTH1 160107Z 14004KT 26/19 A2989 RMK A01 T02560189  RH  066%=      5-min Rain = 0
KTH1 160108Z 14004KT 26/19 A2989 RMK A01 T02570189  RH  066%=      5-min Rain = 0
KTH1 160109Z 14006KT 26/19 A2989 RMK A01 T02560189  RH  066%=      5-min Rain = 0
KTH1 160110Z 14005KT 26/19 A2989 RMK A01 T02560188  RH  066%=      5-min Rain = 0
KTH1 160111Z 14005KT 26/19 A2989 RMK A01 T02560188  RH  066%=      5-min Rain = 0
KTH1 160112Z 14006KT 26/19 A2988 RMK A01 T02560187  RH  066%=      5-min Rain = 0
KTH1 160113Z 13005KT 26/19 A2988 RMK A01 T02560186  RH  066%=      5-min Rain = 0
KTH1 160114Z 14006KT 26/19 A2988 RMK A01 T02550186  RH  066%=      5-min Rain = 0
KTH1 160115Z 13005KT 26/19 A2988 RMK A01 T02560187  RH  066%=      5-min Rain = 0
KTH1 160116Z 12005KT 26/19 A2988 RMK A01 T02560187  RH  066%=      5-min Rain = 0
KTH1 160117Z 12005KT 26/19 A2989 RMK A01 T02550187  RH  066%=      5-min Rain = 0
KTH1 160118Z 11005KT 26/19 A2989 RMK A01 T02550188  RH  066%=      5-min Rain = 0
KTH1 160119Z 11004KT 26/19 A2989 RMK A01 T02550188  RH  067%=      5-min Rain = 0
KTH1 160120Z 11005KT 26/19 A2989 RMK A01 T02550189  RH  067%=      5-min Rain = 0
KTH1 160121Z 10006KT 25/19 A2989 RMK A01 T02540190  RH  067%=      5-min Rain = 0
KTH1 160122Z 10005KT 25/19 A2989 RMK A01 T02540191  RH  068%=      5-min Rain = 0
KTH1 160123Z 09005KT 25/19 A2989 RMK A01 T02540192  RH  068%=      5-min Rain = 0
KTH1 160124Z 09005KT 25/19 A299 RMK A01 T02540192  RH  069%=      5-min Rain = 0
KTH1 160125Z 10005KT 25/19 A299 RMK A01 T02540193  RH  069%=      5-min Rain = 0
KTH1 160126Z 10005KT 25/19 A2991 RMK A01 T02530193  RH  069%=      5-min Rain = 0
KTH1 160127Z 10005KT 25/19 A2991 RMK A01 T02530193  RH  069%=      5-min Rain = 0
KTH1 160128Z 11005KT 25/19 A2991 RMK A01 T02530192  RH  069%=      5-min Rain = 0
KTH1 160129Z 12004KT 25/19 A2991 RMK A01 T02530193  RH  069%=      5-min Rain = 0
KTH1 160130Z 13005KT 25/19 A2992 RMK A01 T02530193  RH  069%=      5-min Rain = 0
KTH1 160131Z 13006KT 25/19 A2992 RMK A01 T02530193  RH  069%=      5-min Rain = 0
KTH1 160132Z 14005KT 25/19 A2992 RMK A01 T02520193  RH  069%=      5-min Rain = 0
KTH1 160133Z 15007KT 25/19 A2992 RMK A01 T02520193  RH  070%=      5-min Rain = 0
KTH1 160134Z 15008KT 25/19 A2992 RMK A01 T02520192  RH  070%=      5-min Rain = 0
KTH1 160135Z 16008KT 25/19 A2992 RMK A01 T02510192  RH  070%=      5-min Rain = 0
KTH1 160136Z 16007KT 25/19 A2992 RMK A01 T02510192  RH  070%=      5-min Rain = 0
KTH1 160137Z 17007KT 25/19 A2992 RMK A01 T02510193  RH  070%=      5-min Rain = 0
KTH1 160138Z 17008KT 25/19 A2991 RMK A01 T02500192  RH  070%=      5-min Rain = 0
KTH1 160139Z 18008KT 25/19 A2991 RMK A01 T02510192  RH  070%=      5-min Rain = 0
KTH1 160140Z 18008KT 25/19 A2991 RMK A01 T02500192  RH  070%=      5-min Rain = 0
KTH1 160141Z 18008KT 25/19 A2991 RMK A01 T02500191  RH  070%=      5-min Rain = 0
KTH1 160142Z 19008KT 25/19 A2992 RMK A01 T02500190  RH  069%=      5-min Rain = 0
KTH1 160143Z 19010KT 25/19 A2992 RMK A01 T02500189  RH  069%=      5-min Rain = 0
KTH1 160144Z 19009KT 25/19 A2992 RMK A01 T02500185  RH  067%=      5-min Rain = 0
KTH1 160145Z 19009KT 25/19 A2992 RMK A01 T02510185  RH  067%=      5-min Rain = 0
KTH1 160146Z 19009KT 25/18 A2993 RMK A01 T02510184  RH  066%=      5-min Rain = 0
KTH1 160147Z 21009KT 25/18 A2994 RMK A01 T02510183  RH  066%=      5-min Rain = 0
KTH1 160148Z 23010KT 25/18 A2995 RMK A01 T02520182  RH  065%=      5-min Rain = 0
KTH1 160149Z 25020G29KT 25/19 A2997 RMK A01 T02530186  RH  067%=      5-min Rain = 0
KTH1 160150Z 23025G31KT 25/18 A2997 RMK A01 T02520184  RH  066%=      5-min Rain = 0
KTH1 160151Z 25027G34KT 25/18 A2996 RMK A01 T02450177  RH  066%=      5-min Rain = 0
KTH1 160152Z 24033G42KT 24/18 A2996 RMK A01 T02350178  RH  070%=      5-min Rain = 0
KTH1 160153Z 24025G36KT 23/18 A2997 RMK A01 T02260175  RH  073%=      5-min Rain = 0
KTH1 160154Z 24023KT 22/18 A2997 RMK A01 T02190176  RH  076%=      5-min Rain = 0
KTH1 160155Z 24018G23KT 22/17 A2997 RMK A01 T02150174  RH  078%=      5-min Rain = 0
KTH1 160156Z 24022G27KT 21/17 A2997 RMK A01 T02110173  RH  079%=      5-min Rain = 0
KTH1 160157Z 24021KT 21/17 A2997 RMK A01 T02100173  RH  079%=      5-min Rain = 0
KTH1 160158Z 25020G25KT 21/17 A2997 RMK A01 T02100172  RH  079%=      5-min Rain = 0
KTH1 160159Z 25021KT 21/18 A2997 RMK A01 T02110176  RH  080%=      5-min Rain = 0
KTH1 160200Z 24017G22KT 21/18 A2997 RMK A01 T02120178  RH  081%=      5-min Rain = 0
KTH1 160201Z 24015G20KT 21/18 A2997 RMK A01 T02110177  RH  081%=      5-min Rain = 0
KTH1 160202Z 24018G24KT 21/18 A2996 RMK A01 T02110177  RH  081%=      5-min Rain = 0
KTH1 160203Z 25023G28KT 21/18 A2996 RMK A01 T02120178  RH  081%=      5-min Rain = 0
KTH1 160204Z 24020KT 21/18 A2996 RMK A01 T02130179  RH  080%=      5-min Rain = 0
KTH1 160205Z 23017KT 22/18 A2996 RMK A01 T02150177  RH  079%=      5-min Rain = 0
KTH1 160206Z 22019G26KT 22/17 A2996 RMK A01 T02160174  RH  077%=      5-min Rain = 0
KTH1 160207Z 23018G23KT 22/17 A2996 RMK A01 T02160173  RH  076%=      5-min Rain = 0
KTH1 160208Z 22020G27KT 22/17 A2996 RMK A01 T02160173  RH  076%=      5-min Rain = 0
KTH1 160209Z 21017G22KT 22/17 A2996 RMK A01 T02150172  RH  076%=      5-min Rain = 0
KTH1 160210Z 20018KT 21/17 A2996 RMK A01 T02130173  RH  078%=      5-min Rain = 0
KTH1 160211Z 20017KT 21/17 A2996 RMK A01 T02110174  RH  079%=      5-min Rain = 0
KTH1 160212Z 18014KT 21/17 A2995 RMK A01 T02110169  RH  077%=      5-min Rain = 0
KTH1 160213Z 17013G19KT 21/17 A2995 RMK A01 T02130168  RH  076%=      5-min Rain = 0
KTH1 160214Z 15016G23KT 21/17 A2993 RMK A01 T02140166  RH  074%=      5-min Rain = 0
KTH1 160215Z 17014G25KT 22/17 A2993 RMK A01 T02180166  RH  072%=      5-min Rain = 0
KTH1 160216Z 17013KT 22/17 A2993 RMK A01 T02210166  RH  071%=      5-min Rain = 0
KTH1 160217Z 20010G15KT 22/16 A2993 RMK A01 T02210163  RH  069%=      5-min Rain = 0
KTH1 160218Z 18006KT 22/16 A2993 RMK A01 T02240161  RH  067%=      5-min Rain = 0
KTH1 160219Z 16009G14KT 23/17 A2992 RMK A01 T02260167  RH  070%=      5-min Rain = 0
KTH1 160220Z 17009G15KT 22/17 A2992 RMK A01 T02230172  RH  072%=      5-min Rain = 0
KTH1 160221Z 16009KT 22/17 A2991 RMK A01 T02200173  RH  075%=      5-min Rain = 0.01
KTH1 160222Z 17009KT 22/17 A2991 RMK A01 T02160172  RH  076%=      5-min Rain = 0
KTH1 160223Z 17008KT 22/17 A2991 RMK A01 T02150171  RH  076%=      5-min Rain = 0
KTH1 160224Z 18004KT 22/17 A2991 RMK A01 T02150172  RH  077%=      5-min Rain = 0
KTH1 160225Z 17008KT 22/17 A2991 RMK A01 T02150171  RH  076%=      5-min Rain = 0
KTH1 160226Z 16010G16KT 21/17 A2991 RMK A01 T02140166  RH  074%=      5-min Rain = 0
KTH1 160227Z 17009KT 22/16 A2991 RMK A01 T02170163  RH  071%=      5-min Rain = 0
KTH1 160228Z 16015KT 22/16 A299 RMK A01 T02190156  RH  067%=      5-min Rain = 0
KTH1 160229Z 17012G18KT 23/14 A299 RMK A01 T02250144  RH  060%=      5-min Rain = 0
KTH1 160230Z 16015G20KT 23/16 A299 RMK A01 T02290157  RH  064%=      5-min Rain = 0
KTH1 160231Z 16014G20KT 23/17 A2989 RMK A01 T02280166  RH  068%=      5-min Rain = 0
KTH1 160232Z 17016G21KT 23/16 A2989 RMK A01 T02250160  RH  067%=      5-min Rain = 0
KTH1 160233Z 17015G20KT 23/16 A2988 RMK A01 T02250161  RH  067%=      5-min Rain = 0
KTH1 160234Z 17018G26KT 23/16 A2988 RMK A01 T02250158  RH  066%=      5-min Rain = 0
KTH1 160235Z 16017G25KT 23/15 A2987 RMK A01 T02260154  RH  064%=      5-min Rain = 0
KTH1 160236Z 16016G25KT 23/15 A2986 RMK A01 T02270153  RH  063%=      5-min Rain = 0
KTH1 160237Z 16016G21KT 23/15 A2985 RMK A01 T02270152  RH  063%=      5-min Rain = 0
KTH1 160238Z 15021G28KT 23/16 A2985 RMK A01 T02270155  RH  064%=      5-min Rain = 0
KTH1 160239Z 16022G30KT 22/16 A2984 RMK A01 T02240161  RH  067%=      5-min Rain = 0
KTH1 160240Z 15025G32KT 22/17 A2983 RMK A01 T02210165  RH  071%=      5-min Rain = 0
KTH1 160241Z 16025KT 22/17 A2983 RMK A01 T02170165  RH  072%=      5-min Rain = 0
KTH1 160242Z 15023G29KT 22/17 A2983 RMK A01 T02160165  RH  073%=      5-min Rain = 0
KTH1 160243Z 16019G29KT 22/17 A2983 RMK A01 T02150165  RH  073%=      5-min Rain = 0
KTH1 160244Z 16015G20KT 22/17 A2984 RMK A01 T02150165  RH  073%=      5-min Rain = 0
KTH1 160245Z 17014G20KT 22/16 A2984 RMK A01 T02150161  RH  071%=      5-min Rain = 0
KTH1 160246Z 18010G15KT 22/16 A2985 RMK A01 T02180159  RH  069%=      5-min Rain = 0
KTH1 160247Z 17007G12KT 22/16 A2985 RMK A01 T02200161  RH  069%=      5-min Rain = 0
KTH1 160248Z 18014G19KT 22/16 A2986 RMK A01 T02210158  RH  067%=      5-min Rain = 0
KTH1 160249Z 18011G16KT 22/16 A2987 RMK A01 T02220157  RH  066%=      5-min Rain = 0
KTH1 160250Z 18010G15KT 22/16 A2987 RMK A01 T02240157  RH  066%=      5-min Rain = 0
KTH1 160251Z 18011G19KT 22/16 A2987 RMK A01 T02240160  RH  067%=      5-min Rain = 0
KTH1 160252Z 17012G21KT 22/16 A2987 RMK A01 T02230160  RH  067%=      5-min Rain = 0
KTH1 160253Z 17015G21KT 22/16 A2987 RMK A01 T02230157  RH  066%=      5-min Rain = 0
KTH1 160254Z 18010KT 23/16 A2987 RMK A01 T02250157  RH  065%=      5-min Rain = 0
KTH1 160255Z 18011KT 23/16 A2988 RMK A01 T02250159  RH  066%=      5-min Rain = 0
KTH1 160256Z 19009KT 23/16 A2988 RMK A01 T02260159  RH  066%=      5-min Rain = 0
KTH1 160257Z 19008KT 23/16 A2988 RMK A01 T02260159  RH  066%=      5-min Rain = 0
KTH1 160258Z 18007KT 23/16 A2989 RMK A01 T02260159  RH  066%=      5-min Rain = 0
KTH1 160259Z 18007KT 23/16 A2989 RMK A01 T02260160  RH  066%=      5-min Rain = 0
KTH1 160300Z 18008KT 23/16 A2989 RMK A01 T02260159  RH  066%=      5-min Rain = 0
KTH1 160301Z 19007KT 23/16 A2989 RMK A01 T02260158  RH  065%=      5-min Rain = 0
KTH1 160302Z 19005KT 23/16 A299 RMK A01 T02270159  RH  065%=      5-min Rain = 0
KTH1 160303Z 19007KT 23/16 A299 RMK A01 T02280158  RH  065%=      5-min Rain = 0
KTH1 160304Z 21004KT 23/16 A299 RMK A01 T02280159  RH  065%=      5-min Rain = 0
KTH1 160305Z 19002KT 23/16 A299 RMK A01 T02280160  RH  065%=      5-min Rain = 0
KTH1 160306Z 34001KT 23/16 A2991 RMK A01 T02290161  RH  065%=      5-min Rain = 0
KTH1 160307Z 01006KT 23/16 A2991 RMK A01 T02280159  RH  065%=      5-min Rain = 0
KTH1 160308Z 01004KT 23/16 A2991 RMK A01 T02290161  RH  066%=      5-min Rain = 0
KTH1 160309Z 05007KT 23/16 A2991 RMK A01 T02290161  RH  065%=      5-min Rain = 0
KTH1 160310Z 09005KT 23/16 A2991 RMK A01 T02290160  RH  065%=      5-min Rain = 0
KTH1 160311Z 10006KT 23/16 A2991 RMK A01 T02280161  RH  066%=      5-min Rain = 0
KTH1 160312Z 11006KT 23/16 A2991 RMK A01 T02280160  RH  065%=      5-min Rain = 0
KTH1 160313Z 13004KT 23/16 A2991 RMK A01 T02280161  RH  066%=      5-min Rain = 0
KTH1 160314Z 09002KT 23/16 A2992 RMK A01 T02280160  RH  066%=      5-min Rain = 0
KTH1 160315Z 09002KT 23/16 A2993 RMK A01 T02270160  RH  066%=      5-min Rain = 0
KTH1 160316Z 05001KT 23/16 A2994 RMK A01 T02270158  RH  065%=      5-min Rain = 0
KTH1 160317Z 36003KT 23/16 A2995 RMK A01 T02270160  RH  066%=      5-min Rain = 0
KTH1 160318Z 31005KT 23/16 A2996 RMK A01 T02270161  RH  066%=      5-min Rain = 0
KTH1 160319Z 31009KT 23/16 A2996 RMK A01 T02270163  RH  067%=      5-min Rain = 0
KTH1 160320Z 32010KT 23/17 A2997 RMK A01 T02280168  RH  069%=      5-min Rain = 0
KTH1 160321Z 30012KT 23/17 A2997 RMK A01 T02280169  RH  069%=      5-min Rain = 0
KTH1 160322Z 29011KT 23/17 A2997 RMK A01 T02280172  RH  071%=      5-min Rain = 0
KTH1 160323Z 26008KT 23/17 A2997 RMK A01 T02270168  RH  069%=      5-min Rain = 0
KTH1 160324Z 23005KT 23/16 A2997 RMK A01 T02270161  RH  066%=      5-min Rain = 0
KTH1 160325Z 19006KT 23/16 A2996 RMK A01 T02270160  RH  066%=      5-min Rain = 0
KTH1 160326Z 18011KT 23/16 A2995 RMK A01 T02260161  RH  067%=      5-min Rain = 0
KTH1 160327Z 18009KT 22/16 A2994 RMK A01 T02240159  RH  067%=      5-min Rain = 0
KTH1 160328Z 17013G19KT 22/16 A2994 RMK A01 T02230159  RH  067%=      5-min Rain = 0
KTH1 160329Z 16011KT 22/16 A2993 RMK A01 T02240158  RH  066%=      5-min Rain = 0
KTH1 160330Z 15012KT 22/16 A2993 RMK A01 T02240160  RH  067%=      5-min Rain = 0
KTH1 160331Z 15015KT 22/16 A2992 RMK A01 T02230160  RH  067%=      5-min Rain = 0
KTH1 160332Z 15016KT 22/16 A2991 RMK A01 T02230160  RH  068%=      5-min Rain = 0
KTH1 160333Z 15015KT 22/16 A299 RMK A01 T02230159  RH  067%=      5-min Rain = 0
KTH1 160334Z 16017KT 22/16 A299 RMK A01 T02240159  RH  067%=      5-min Rain = 0
KTH1 160335Z 16015G21KT 22/16 A299 RMK A01 T02240160  RH  067%=      5-min Rain = 0
KTH1 160336Z 16015KT 23/16 A299 RMK A01 T02250158  RH  066%=      5-min Rain = 0
KTH1 160337Z 16013KT 23/16 A299 RMK A01 T02260157  RH  065%=      5-min Rain = 0
KTH1 160338Z 16012KT 23/16 A2991 RMK A01 T02280158  RH  064%=      5-min Rain = 0
KTH1 160339Z 16009KT 23/16 A2992 RMK A01 T02290158  RH  064%=      5-min Rain = 0
KTH1 160340Z 14003KT 23/16 A2993 RMK A01 T02290159  RH  064%=      5-min Rain = 0
KTH1 160341Z 01005KT 23/16 A2994 RMK A01 T02290159  RH  065%=      5-min Rain = 0
KTH1 160342Z 33008KT 23/16 A2995 RMK A01 T02290160  RH  065%=      5-min Rain = 0
KTH1 160343Z 33008KT 23/16 A2995 RMK A01 T02300163  RH  066%=      5-min Rain = 0
KTH1 160344Z 33009KT 23/16 A2995 RMK A01 T02290163  RH  066%=      5-min Rain = 0
KTH1 160345Z 33009G14KT 23/16 A2995 RMK A01 T02270162  RH  067%=      5-min Rain = 0
KTH1 160346Z 01008KT 23/16 A2996 RMK A01 T02260161  RH  067%=      5-min Rain = 0
KTH1 160347Z 00004KT 23/16 A2996 RMK A01 T02250160  RH  067%=      5-min Rain = 0
KTH1 160348Z 03004KT 23/16 A2996 RMK A01 T02250161  RH  067%=      5-min Rain = 0
KTH1 160349Z 05005KT 22/16 A2996 RMK A01 T02240160  RH  067%=      5-min Rain = 0
KTH1 160350Z 07007KT 22/16 A2996 RMK A01 T02240159  RH  067%=      5-min Rain = 0
KTH1 160351Z 10006KT 23/16 A2996 RMK A01 T02250156  RH  065%=      5-min Rain = 0
KTH1 160352Z 15004KT 23/15 A2995 RMK A01 T02270154  RH  063%=      5-min Rain = 0
KTH1 160353Z 19006KT 23/16 A2995 RMK A01 T02290157  RH  064%=      5-min Rain = 0
KTH1 160354Z 20009KT 23/16 A2994 RMK A01 T02290158  RH  064%=      5-min Rain = 0
KTH1 160355Z 21008KT 23/16 A2994 RMK A01 T02280160  RH  065%=      5-min Rain = 0
KTH1 160356Z 21008KT 23/16 A2994 RMK A01 T02270161  RH  066%=      5-min Rain = 0
KTH1 160357Z 23006KT 23/16 A2994 RMK A01 T02260161  RH  067%=      5-min Rain = 0
KTH1 160358Z 25006KT 23/16 A2994 RMK A01 T02260162  RH  067%=      5-min Rain = 0
KTH1 160359Z 27006KT 23/17 A2995 RMK A01 T02260168  RH  070%=      5-min Rain = 0
KTH1 160400Z 33006KT 23/17 A2996 RMK A01 T02260174  RH  072%=      5-min Rain = 0
KTH1 160401Z 00011KT 23/17 A2996 RMK A01 T02250168  RH  070%=      5-min Rain = 0
KTH1 160402Z 35012G17KT 23/16 A2996 RMK A01 T02260162  RH  067%=      5-min Rain = 0
KTH1 160403Z 34013G19KT 23/16 A2996 RMK A01 T02260160  RH  066%=      5-min Rain = 0
KTH1 160404Z 33007G14KT 23/16 A2997 RMK A01 T02270161  RH  066%=      5-min Rain = 0
KTH1 160405Z 32007KT 23/16 A2997 RMK A01 T02270162  RH  067%=      5-min Rain = 0
KTH1 160406Z 32008KT 23/16 A2997 RMK A01 T02270161  RH  067%=      5-min Rain = 0
KTH1 160407Z 29008KT 23/16 A2997 RMK A01 T02270161  RH  066%=      5-min Rain = 0
KTH1 160408Z 28007KT 23/16 A2996 RMK A01 T02280164  RH  067%=      5-min Rain = 0
KTH1 160409Z 26006KT 23/16 A2996 RMK A01 T02280164  RH  067%=      5-min Rain = 0
KTH1 160410Z 26007KT 23/16 A2996 RMK A01 T02280164  RH  067%=      5-min Rain = 0
KTH1 160411Z 25007KT 23/16 A2996 RMK A01 T02290162  RH  066%=      5-min Rain = 0
KTH1 160412Z 24006KT 23/16 A2996 RMK A01 T02290163  RH  066%=      5-min Rain = 0
KTH1 160413Z 25006KT 23/16 A2996 RMK A01 T02300161  RH  065%=      5-min Rain = 0
KTH1 160414Z 25005KT 23/16 A2996 RMK A01 T02300160  RH  065%=      5-min Rain = 0
KTH1 160415Z 26004KT 23/16 A2995 RMK A01 T02300158  RH  064%=      5-min Rain = 0
KTH1 160416Z 25003KT 23/16 A2995 RMK A01 T02310159  RH  064%=      5-min Rain = 0
KTH1 160417Z 26003KT 23/16 A2995 RMK A01 T02310161  RH  064%=      5-min Rain = 0
KTH1 160418Z 27002KT 23/16 A2995 RMK A01 T02310161  RH  064%=      5-min Rain = 0
KTH1 160419Z 29002KT 23/16 A2996 RMK A01 T02310163  RH  066%=      5-min Rain = 0
KTH1 160420Z 30002KT 23/17 A2996 RMK A01 T02310165  RH  066%=      5-min Rain = 0
KTH1 160421Z 32001KT 23/17 A2996 RMK A01 T02310165  RH  067%=      5-min Rain = 0
KTH1 160422Z 34001KT 23/17 A2997 RMK A01 T02300166  RH  067%=      5-min Rain = 0
KTH1 160423Z 00002KT 23/17 A2997 RMK A01 T02290165  RH  067%=      5-min Rain = 0
KTH1 160424Z 06003KT 23/16 A2997 RMK A01 T02280164  RH  067%=      5-min Rain = 0
KTH1 160425Z 08004KT 23/17 A2996 RMK A01 T02280165  RH  068%=      5-min Rain = 0
KTH1 160426Z 08007KT 23/16 A2996 RMK A01 T02260163  RH  068%=      5-min Rain = 0
KTH1 160427Z 09007KT 23/16 A2995 RMK A01 T02250162  RH  068%=      5-min Rain = 0
KTH1 160428Z 10006KT 22/16 A2994 RMK A01 T02220162  RH  069%=      5-min Rain = 0
KTH1 160429Z 11007KT 22/16 A2993 RMK A01 T02200161  RH  069%=      5-min Rain = 0
KTH1 160430Z 13005KT 22/16 A2993 RMK A01 T02190162  RH  070%=      5-min Rain = 0
KTH1 160431Z 15005KT 22/16 A2993 RMK A01 T02180160  RH  069%=      5-min Rain = 0
KTH1 160432Z 17005KT 22/16 A2993 RMK A01 T02180160  RH  070%=      5-min Rain = 0
KTH1 160433Z 17005KT 22/16 A2993 RMK A01 T02170160  RH  070%=      5-min Rain = 0
KTH1 160434Z 18004KT 22/16 A2994 RMK A01 T02160158  RH  069%=      5-min Rain = 0
KTH1 160435Z 18003KT 22/16 A2994 RMK A01 T02160158  RH  069%=      5-min Rain = 0
KTH1 160436Z 16003KT 22/16 A2994 RMK A01 T02160157  RH  069%=      5-min Rain = 0
KTH1 160437Z 18005KT 22/16 A2994 RMK A01 T02160157  RH  069%=      5-min Rain = 0
KTH1 160438Z 17004KT 22/16 A2994 RMK A01 T02160158  RH  070%=      5-min Rain = 0
KTH1 160439Z 17006KT 22/16 A2994 RMK A01 T02160158  RH  070%=      5-min Rain = 0
KTH1 160440Z 18006KT 22/16 A2994 RMK A01 T02150158  RH  070%=      5-min Rain = 0
KTH1 160441Z 19005KT 21/16 A2994 RMK A01 T02140158  RH  070%=      5-min Rain = 0
KTH1 160442Z 19005KT 21/16 A2994 RMK A01 T02140157  RH  070%=      5-min Rain = 0
KTH1 160443Z 19005KT 21/16 A2994 RMK A01 T02140158  RH  071%=      5-min Rain = 0
KTH1 160444Z 21003KT 21/16 A2994 RMK A01 T02130158  RH  071%=      5-min Rain = 0
KTH1 160445Z 20003KT 21/16 A2995 RMK A01 T02130158  RH  071%=      5-min Rain = 0
KTH1 160446Z 23001KT 21/16 A2995 RMK A01 T02130158  RH  071%=      5-min Rain = 0
KTH1 160447Z 25001KT 21/16 A2996 RMK A01 T02130159  RH  071%=      5-min Rain = 0
KTH1 160448Z 22001KT 21/16 A2996 RMK A01 T02130159  RH  071%=      5-min Rain = 0
KTH1 160449Z 24000KT 21/16 A2997 RMK A01 T02140158  RH  070%=      5-min Rain = 0
KTH1 160450Z 35002KT 22/16 A2997 RMK A01 T02160162  RH  071%=      5-min Rain = 0
KTH1 160451Z 00005KT 22/16 A2998 RMK A01 T02150163  RH  072%=      5-min Rain = 0
KTH1 160452Z 01007KT 22/16 A2998 RMK A01 T02160163  RH  072%=      5-min Rain = 0
KTH1 160453Z 36007KT 22/16 A2999 RMK A01 T02150164  RH  072%=      5-min Rain = 0
KTH1 160454Z 36010G16KT 22/16 A30 RMK A01 T02150162  RH  072%=      5-min Rain = 0
KTH1 160455Z 35007KT 22/16 A30 RMK A01 T02160160  RH  071%=      5-min Rain = 0
KTH1 160456Z 34006G11KT 22/16 A30 RMK A01 T02170160  RH  070%=      5-min Rain = 0
KTH1 160457Z 33010KT 22/16 A3001 RMK A01 T02180159  RH  069%=      5-min Rain = 0
KTH1 160458Z 33007KT 22/16 A3001 RMK A01 T02190161  RH  069%=      5-min Rain = 0
KTH1 160459Z 33010G15KT 22/16 A3001 RMK A01 T02200160  RH  069%=      5-min Rain = 0

Page generated in 0.0324 seconds.